<?xml version="1.0" encoding="UTF-8" standalone="no" ?>
<gpx xmlns="http://www.topografix.com/GPX/1/1" xmlns:xsi="http://www.w3.org/2001/XMLSchema-instance" xsi:schemaLocation="http://www.topografix.com/GPX/1/1 http://www.topografix.com/GPX/1/1/gpx.xsd" version="1.1" creator="VisuGPX - https://www.visugpx.com">
  <metadata>
    <name>Entre Bondelon et Les Fayardes</name>
    <desc><![CDATA[Balade au départ de Fontaine de Vaucluse passant par Bondelon l'aqueduc et les Fayardes.]]></desc>
  </metadata>
  <trk>
    <name><![CDATA[2021-02-15 14:59:54]]></name>
    <trkseg>
      <trkpt lat="43.91957" lon="5.12668">
        <ele>88.1</ele>
        <time>2021-02-15T08:06:21Z</time>
      </trkpt>
      <trkpt lat="43.91958" lon="5.12668">
        <ele>88.1</ele>
        <time>2021-02-15T08:06:22Z</time>
      </trkpt>
      <trkpt lat="43.91963" lon="5.1267">
        <ele>86.66</ele>
        <time>2021-02-15T08:06:36Z</time>
      </trkpt>
      <trkpt lat="43.91967" lon="5.12676">
        <ele>86.66</ele>
        <time>2021-02-15T08:07:01Z</time>
      </trkpt>
      <trkpt lat="43.91963" lon="5.12683">
        <ele>86.66</ele>
        <time>2021-02-15T08:07:32Z</time>
      </trkpt>
      <trkpt lat="43.91964" lon="5.12682">
        <ele>84.73</ele>
        <time>2021-02-15T08:07:43Z</time>
      </trkpt>
      <trkpt lat="43.91965" lon="5.12682">
        <ele>86.18</ele>
        <time>2021-02-15T08:07:45Z</time>
      </trkpt>
      <trkpt lat="43.91966" lon="5.12683">
        <ele>86.18</ele>
        <time>2021-02-15T08:08:11Z</time>
      </trkpt>
      <trkpt lat="43.91973" lon="5.12687">
        <ele>86.18</ele>
        <time>2021-02-15T08:08:42Z</time>
      </trkpt>
      <trkpt lat="43.9197" lon="5.12686">
        <ele>86.18</ele>
        <time>2021-02-15T08:09:17Z</time>
      </trkpt>
      <trkpt lat="43.91971" lon="5.12693">
        <ele>86.18</ele>
        <time>2021-02-15T08:09:51Z</time>
      </trkpt>
      <trkpt lat="43.9197" lon="5.12688">
        <ele>86.18</ele>
        <time>2021-02-15T08:10:24Z</time>
      </trkpt>
      <trkpt lat="43.91965" lon="5.1268">
        <ele>86.18</ele>
        <time>2021-02-15T08:10:51Z</time>
      </trkpt>
      <trkpt lat="43.91964" lon="5.12679">
        <ele>86.18</ele>
        <time>2021-02-15T08:11:17Z</time>
      </trkpt>
      <trkpt lat="43.91966" lon="5.12685">
        <ele>86.66</ele>
        <time>2021-02-15T08:11:58Z</time>
      </trkpt>
      <trkpt lat="43.91969" lon="5.12688">
        <ele>87.14</ele>
        <time>2021-02-15T08:12:33Z</time>
      </trkpt>
      <trkpt lat="43.91966" lon="5.12686">
        <ele>87.14</ele>
        <time>2021-02-15T08:13:02Z</time>
      </trkpt>
      <trkpt lat="43.91968" lon="5.12683">
        <ele>87.14</ele>
        <time>2021-02-15T08:13:43Z</time>
      </trkpt>
      <trkpt lat="43.91967" lon="5.12688">
        <ele>88.58</ele>
        <time>2021-02-15T08:14:17Z</time>
      </trkpt>
      <trkpt lat="43.91965" lon="5.12684">
        <ele>88.58</ele>
        <time>2021-02-15T08:14:48Z</time>
      </trkpt>
      <trkpt lat="43.9197" lon="5.12686">
        <ele>88.58</ele>
        <time>2021-02-15T08:15:21Z</time>
      </trkpt>
      <trkpt lat="43.91965" lon="5.12679">
        <ele>88.58</ele>
        <time>2021-02-15T08:15:40Z</time>
      </trkpt>
      <trkpt lat="43.91965" lon="5.12681">
        <ele>88.58</ele>
        <time>2021-02-15T08:16:05Z</time>
      </trkpt>
      <trkpt lat="43.91964" lon="5.12681">
        <ele>89.06</ele>
        <time>2021-02-15T08:16:31Z</time>
      </trkpt>
      <trkpt lat="43.91967" lon="5.12691">
        <ele>89.06</ele>
        <time>2021-02-15T08:16:55Z</time>
      </trkpt>
      <trkpt lat="43.91968" lon="5.127">
        <ele>89.54</ele>
        <time>2021-02-15T08:17:29Z</time>
      </trkpt>
      <trkpt lat="43.91968" lon="5.12689">
        <ele>90.02</ele>
        <time>2021-02-15T08:18:06Z</time>
      </trkpt>
      <trkpt lat="43.91966" lon="5.12685">
        <ele>89.06</ele>
        <time>2021-02-15T08:18:33Z</time>
      </trkpt>
      <trkpt lat="43.91965" lon="5.12676">
        <ele>89.54</ele>
        <time>2021-02-15T08:19:15Z</time>
      </trkpt>
      <trkpt lat="43.91961" lon="5.12687">
        <ele>89.54</ele>
        <time>2021-02-15T08:19:48Z</time>
      </trkpt>
      <trkpt lat="43.91961" lon="5.12679">
        <ele>89.54</ele>
        <time>2021-02-15T08:20:22Z</time>
      </trkpt>
      <trkpt lat="43.91967" lon="5.12679">
        <ele>89.54</ele>
        <time>2021-02-15T08:20:55Z</time>
      </trkpt>
      <trkpt lat="43.91966" lon="5.12681">
        <ele>89.54</ele>
        <time>2021-02-15T08:21:25Z</time>
      </trkpt>
      <trkpt lat="43.91969" lon="5.12681">
        <ele>90.02</ele>
        <time>2021-02-15T08:22:00Z</time>
      </trkpt>
      <trkpt lat="43.91972" lon="5.12684">
        <ele>90.02</ele>
        <time>2021-02-15T08:22:30Z</time>
      </trkpt>
      <trkpt lat="43.91969" lon="5.12675">
        <ele>90.02</ele>
        <time>2021-02-15T08:23:01Z</time>
      </trkpt>
      <trkpt lat="43.91971" lon="5.12686">
        <ele>90.02</ele>
        <time>2021-02-15T08:23:40Z</time>
      </trkpt>
      <trkpt lat="43.91972" lon="5.12684">
        <ele>90.02</ele>
        <time>2021-02-15T08:24:10Z</time>
      </trkpt>
      <trkpt lat="43.91973" lon="5.12682">
        <ele>90.02</ele>
        <time>2021-02-15T08:24:33Z</time>
      </trkpt>
      <trkpt lat="43.9197" lon="5.12683">
        <ele>90.02</ele>
        <time>2021-02-15T08:24:59Z</time>
      </trkpt>
      <trkpt lat="43.9197" lon="5.12678">
        <ele>89.06</ele>
        <time>2021-02-15T08:25:23Z</time>
      </trkpt>
      <trkpt lat="43.91967" lon="5.12676">
        <ele>91.94</ele>
        <time>2021-02-15T08:25:36Z</time>
      </trkpt>
      <trkpt lat="43.91968" lon="5.12676">
        <ele>90.98</ele>
        <time>2021-02-15T08:25:47Z</time>
      </trkpt>
      <trkpt lat="43.91969" lon="5.12674">
        <ele>90.02</ele>
        <time>2021-02-15T08:25:54Z</time>
      </trkpt>
      <trkpt lat="43.9197" lon="5.12673">
        <ele>90.98</ele>
        <time>2021-02-15T08:26:08Z</time>
      </trkpt>
      <trkpt lat="43.91964" lon="5.12672">
        <ele>90.5</ele>
        <time>2021-02-15T08:26:31Z</time>
      </trkpt>
      <trkpt lat="43.91963" lon="5.12671">
        <ele>90.98</ele>
        <time>2021-02-15T08:26:57Z</time>
      </trkpt>
      <trkpt lat="43.91965" lon="5.12674">
        <ele>90.98</ele>
        <time>2021-02-15T08:27:17Z</time>
      </trkpt>
      <trkpt lat="43.91965" lon="5.12678">
        <ele>90.98</ele>
        <time>2021-02-15T08:27:31Z</time>
      </trkpt>
      <trkpt lat="43.91965" lon="5.12676">
        <ele>90.98</ele>
        <time>2021-02-15T08:27:49Z</time>
      </trkpt>
      <trkpt lat="43.9196" lon="5.12675">
        <ele>90.98</ele>
        <time>2021-02-15T08:28:09Z</time>
      </trkpt>
      <trkpt lat="43.91959" lon="5.12666">
        <ele>90.98</ele>
        <time>2021-02-15T08:28:27Z</time>
      </trkpt>
      <trkpt lat="43.91954" lon="5.12662">
        <ele>90.98</ele>
        <time>2021-02-15T08:29:00Z</time>
      </trkpt>
      <trkpt lat="43.91954" lon="5.12666">
        <ele>90.5</ele>
        <time>2021-02-15T08:29:22Z</time>
      </trkpt>
      <trkpt lat="43.91955" lon="5.12671">
        <ele>91.94</ele>
        <time>2021-02-15T08:29:32Z</time>
      </trkpt>
      <trkpt lat="43.91959" lon="5.12672">
        <ele>91.46</ele>
        <time>2021-02-15T08:29:51Z</time>
      </trkpt>
      <trkpt lat="43.91961" lon="5.12671">
        <ele>91.46</ele>
        <time>2021-02-15T08:30:06Z</time>
      </trkpt>
      <trkpt lat="43.9196" lon="5.1267">
        <ele>91.46</ele>
        <time>2021-02-15T08:30:20Z</time>
      </trkpt>
      <trkpt lat="43.91961" lon="5.12671">
        <ele>91.46</ele>
        <time>2021-02-15T08:30:37Z</time>
      </trkpt>
      <trkpt lat="43.91959" lon="5.1267">
        <ele>91.46</ele>
        <time>2021-02-15T08:30:50Z</time>
      </trkpt>
      <trkpt lat="43.91955" lon="5.12666">
        <ele>91.46</ele>
        <time>2021-02-15T08:31:05Z</time>
      </trkpt>
      <trkpt lat="43.91952" lon="5.1266">
        <ele>91.46</ele>
        <time>2021-02-15T08:31:23Z</time>
      </trkpt>
      <trkpt lat="43.91949" lon="5.12658">
        <ele>90.98</ele>
        <time>2021-02-15T08:31:54Z</time>
      </trkpt>
      <trkpt lat="43.91952" lon="5.12661">
        <ele>90.02</ele>
        <time>2021-02-15T08:32:26Z</time>
      </trkpt>
      <trkpt lat="43.91953" lon="5.12658">
        <ele>90.02</ele>
        <time>2021-02-15T08:32:41Z</time>
      </trkpt>
      <trkpt lat="43.91946" lon="5.12643">
        <ele>90.02</ele>
        <time>2021-02-15T08:32:56Z</time>
      </trkpt>
      <trkpt lat="43.91941" lon="5.12628">
        <ele>90.5</ele>
        <time>2021-02-15T08:33:11Z</time>
      </trkpt>
      <trkpt lat="43.91942" lon="5.12609">
        <ele>90.98</ele>
        <time>2021-02-15T08:33:23Z</time>
      </trkpt>
      <trkpt lat="43.91946" lon="5.12591">
        <ele>90.98</ele>
        <time>2021-02-15T08:33:39Z</time>
      </trkpt>
      <trkpt lat="43.91951" lon="5.12581">
        <ele>90.98</ele>
        <time>2021-02-15T08:33:48Z</time>
      </trkpt>
      <trkpt lat="43.91962" lon="5.12561">
        <ele>90.02</ele>
        <time>2021-02-15T08:34:06Z</time>
      </trkpt>
      <trkpt lat="43.91961" lon="5.12555">
        <ele>90.02</ele>
        <time>2021-02-15T08:34:11Z</time>
      </trkpt>
      <trkpt lat="43.91957" lon="5.12551">
        <ele>90.02</ele>
        <time>2021-02-15T08:34:16Z</time>
      </trkpt>
      <trkpt lat="43.91944" lon="5.12543">
        <ele>90.98</ele>
        <time>2021-02-15T08:34:32Z</time>
      </trkpt>
      <trkpt lat="43.91932" lon="5.12538">
        <ele>91.94</ele>
        <time>2021-02-15T08:34:46Z</time>
      </trkpt>
      <trkpt lat="43.91923" lon="5.12529">
        <ele>92.9</ele>
        <time>2021-02-15T08:35:02Z</time>
      </trkpt>
      <trkpt lat="43.91922" lon="5.12528">
        <ele>92.9</ele>
        <time>2021-02-15T08:35:03Z</time>
      </trkpt>
      <trkpt lat="43.91913" lon="5.12512">
        <ele>94.35</ele>
        <time>2021-02-15T08:35:19Z</time>
      </trkpt>
      <trkpt lat="43.91907" lon="5.12497">
        <ele>96.27</ele>
        <time>2021-02-15T08:35:34Z</time>
      </trkpt>
      <trkpt lat="43.91895" lon="5.12484">
        <ele>98.67</ele>
        <time>2021-02-15T08:35:52Z</time>
      </trkpt>
      <trkpt lat="43.91888" lon="5.12481">
        <ele>100.11</ele>
        <time>2021-02-15T08:36:06Z</time>
      </trkpt>
      <trkpt lat="43.91886" lon="5.12475">
        <ele>100.11</ele>
        <time>2021-02-15T08:36:27Z</time>
      </trkpt>
      <trkpt lat="43.91884" lon="5.12473">
        <ele>100.11</ele>
        <time>2021-02-15T08:36:29Z</time>
      </trkpt>
      <trkpt lat="43.91877" lon="5.12466">
        <ele>101.56</ele>
        <time>2021-02-15T08:36:44Z</time>
      </trkpt>
      <trkpt lat="43.91877" lon="5.12465">
        <ele>101.08</ele>
        <time>2021-02-15T08:37:01Z</time>
      </trkpt>
      <trkpt lat="43.91874" lon="5.1246">
        <ele>102.04</ele>
        <time>2021-02-15T08:37:07Z</time>
      </trkpt>
      <trkpt lat="43.91865" lon="5.12447">
        <ele>104.44</ele>
        <time>2021-02-15T08:37:23Z</time>
      </trkpt>
      <trkpt lat="43.91855" lon="5.12439">
        <ele>107.32</ele>
        <time>2021-02-15T08:37:40Z</time>
      </trkpt>
      <trkpt lat="43.91847" lon="5.12434">
        <ele>109.25</ele>
        <time>2021-02-15T08:37:57Z</time>
      </trkpt>
      <trkpt lat="43.91846" lon="5.12436">
        <ele>109.73</ele>
        <time>2021-02-15T08:38:10Z</time>
      </trkpt>
      <trkpt lat="43.91838" lon="5.12428">
        <ele>111.17</ele>
        <time>2021-02-15T08:38:24Z</time>
      </trkpt>
      <trkpt lat="43.9183" lon="5.1242">
        <ele>113.57</ele>
        <time>2021-02-15T08:38:40Z</time>
      </trkpt>
      <trkpt lat="43.91818" lon="5.12413">
        <ele>115.98</ele>
        <time>2021-02-15T08:38:57Z</time>
      </trkpt>
      <trkpt lat="43.91813" lon="5.12404">
        <ele>117.9</ele>
        <time>2021-02-15T08:39:10Z</time>
      </trkpt>
      <trkpt lat="43.91811" lon="5.12391">
        <ele>121.26</ele>
        <time>2021-02-15T08:39:24Z</time>
      </trkpt>
      <trkpt lat="43.9181" lon="5.12381">
        <ele>123.19</ele>
        <time>2021-02-15T08:39:37Z</time>
      </trkpt>
      <trkpt lat="43.91808" lon="5.1237">
        <ele>125.11</ele>
        <time>2021-02-15T08:39:51Z</time>
      </trkpt>
      <trkpt lat="43.91803" lon="5.12356">
        <ele>127.99</ele>
        <time>2021-02-15T08:40:09Z</time>
      </trkpt>
      <trkpt lat="43.91798" lon="5.12345">
        <ele>130.4</ele>
        <time>2021-02-15T08:40:28Z</time>
      </trkpt>
      <trkpt lat="43.91793" lon="5.12338">
        <ele>131.84</ele>
        <time>2021-02-15T08:40:44Z</time>
      </trkpt>
      <trkpt lat="43.91788" lon="5.12329">
        <ele>133.76</ele>
        <time>2021-02-15T08:40:58Z</time>
      </trkpt>
      <trkpt lat="43.91784" lon="5.12318">
        <ele>136.16</ele>
        <time>2021-02-15T08:41:13Z</time>
      </trkpt>
      <trkpt lat="43.91779" lon="5.12307">
        <ele>139.05</ele>
        <time>2021-02-15T08:41:26Z</time>
      </trkpt>
      <trkpt lat="43.91773" lon="5.12303">
        <ele>139.53</ele>
        <time>2021-02-15T08:41:40Z</time>
      </trkpt>
      <trkpt lat="43.91772" lon="5.12302">
        <ele>140.01</ele>
        <time>2021-02-15T08:41:41Z</time>
      </trkpt>
      <trkpt lat="43.9176" lon="5.1229">
        <ele>144.34</ele>
        <time>2021-02-15T08:41:56Z</time>
      </trkpt>
      <trkpt lat="43.91759" lon="5.12289">
        <ele>144.34</ele>
        <time>2021-02-15T08:41:57Z</time>
      </trkpt>
      <trkpt lat="43.91753" lon="5.12284">
        <ele>145.78</ele>
        <time>2021-02-15T08:42:10Z</time>
      </trkpt>
      <trkpt lat="43.91745" lon="5.12278">
        <ele>149.14</ele>
        <time>2021-02-15T08:42:21Z</time>
      </trkpt>
      <trkpt lat="43.91742" lon="5.12276">
        <ele>148.18</ele>
        <time>2021-02-15T08:42:24Z</time>
      </trkpt>
      <trkpt lat="43.91734" lon="5.12267">
        <ele>149.62</ele>
        <time>2021-02-15T08:42:34Z</time>
      </trkpt>
      <trkpt lat="43.91726" lon="5.12259">
        <ele>151.06</ele>
        <time>2021-02-15T08:42:46Z</time>
      </trkpt>
      <trkpt lat="43.91729" lon="5.12253">
        <ele>152.99</ele>
        <time>2021-02-15T08:42:59Z</time>
      </trkpt>
      <trkpt lat="43.91729" lon="5.12253">
        <ele>150.1</ele>
        <time>2021-02-15T08:43:00Z</time>
      </trkpt>
      <trkpt lat="43.91729" lon="5.12253">
        <ele>150.1</ele>
        <time>2021-02-15T08:43:01Z</time>
      </trkpt>
      <trkpt lat="43.91726" lon="5.12256">
        <ele>150.1</ele>
        <time>2021-02-15T08:43:27Z</time>
      </trkpt>
      <trkpt lat="43.91726" lon="5.12255">
        <ele>149.62</ele>
        <time>2021-02-15T08:43:58Z</time>
      </trkpt>
      <trkpt lat="43.91729" lon="5.12256">
        <ele>149.62</ele>
        <time>2021-02-15T08:44:37Z</time>
      </trkpt>
      <trkpt lat="43.91729" lon="5.12254">
        <ele>149.62</ele>
        <time>2021-02-15T08:45:11Z</time>
      </trkpt>
      <trkpt lat="43.91729" lon="5.12255">
        <ele>149.14</ele>
        <time>2021-02-15T08:45:48Z</time>
      </trkpt>
      <trkpt lat="43.91733" lon="5.12248">
        <ele>149.14</ele>
        <time>2021-02-15T08:46:15Z</time>
      </trkpt>
      <trkpt lat="43.91728" lon="5.12253">
        <ele>149.14</ele>
        <time>2021-02-15T08:46:45Z</time>
      </trkpt>
      <trkpt lat="43.91727" lon="5.12251">
        <ele>148.66</ele>
        <time>2021-02-15T08:47:21Z</time>
      </trkpt>
      <trkpt lat="43.9173" lon="5.12254">
        <ele>148.66</ele>
        <time>2021-02-15T08:47:57Z</time>
      </trkpt>
      <trkpt lat="43.91734" lon="5.12251">
        <ele>148.66</ele>
        <time>2021-02-15T08:48:21Z</time>
      </trkpt>
      <trkpt lat="43.91732" lon="5.12254">
        <ele>148.66</ele>
        <time>2021-02-15T08:48:40Z</time>
      </trkpt>
      <trkpt lat="43.91727" lon="5.12251">
        <ele>148.66</ele>
        <time>2021-02-15T08:49:17Z</time>
      </trkpt>
      <trkpt lat="43.91728" lon="5.12251">
        <ele>148.66</ele>
        <time>2021-02-15T08:49:50Z</time>
      </trkpt>
      <trkpt lat="43.91724" lon="5.1225">
        <ele>148.66</ele>
        <time>2021-02-15T08:50:19Z</time>
      </trkpt>
      <trkpt lat="43.91727" lon="5.12257">
        <ele>148.66</ele>
        <time>2021-02-15T08:50:52Z</time>
      </trkpt>
      <trkpt lat="43.91729" lon="5.12258">
        <ele>148.18</ele>
        <time>2021-02-15T08:51:25Z</time>
      </trkpt>
      <trkpt lat="43.91728" lon="5.12256">
        <ele>148.18</ele>
        <time>2021-02-15T08:51:45Z</time>
      </trkpt>
      <trkpt lat="43.91727" lon="5.12254">
        <ele>148.18</ele>
        <time>2021-02-15T08:51:57Z</time>
      </trkpt>
      <trkpt lat="43.91727" lon="5.12254">
        <ele>149.62</ele>
        <time>2021-02-15T08:51:59Z</time>
      </trkpt>
      <trkpt lat="43.91728" lon="5.12256">
        <ele>150.1</ele>
        <time>2021-02-15T08:52:17Z</time>
      </trkpt>
      <trkpt lat="43.91726" lon="5.12254">
        <ele>149.62</ele>
        <time>2021-02-15T08:52:44Z</time>
      </trkpt>
      <trkpt lat="43.91726" lon="5.12258">
        <ele>149.62</ele>
        <time>2021-02-15T08:52:58Z</time>
      </trkpt>
      <trkpt lat="43.91728" lon="5.12257">
        <ele>149.62</ele>
        <time>2021-02-15T08:53:26Z</time>
      </trkpt>
      <trkpt lat="43.91727" lon="5.12257">
        <ele>149.62</ele>
        <time>2021-02-15T08:53:43Z</time>
      </trkpt>
      <trkpt lat="43.91729" lon="5.12254">
        <ele>149.62</ele>
        <time>2021-02-15T08:54:08Z</time>
      </trkpt>
      <trkpt lat="43.91728" lon="5.12254">
        <ele>148.18</ele>
        <time>2021-02-15T08:54:20Z</time>
      </trkpt>
      <trkpt lat="43.91729" lon="5.12254">
        <ele>149.62</ele>
        <time>2021-02-15T08:54:29Z</time>
      </trkpt>
      <trkpt lat="43.91725" lon="5.12252">
        <ele>149.62</ele>
        <time>2021-02-15T08:54:36Z</time>
      </trkpt>
      <trkpt lat="43.91713" lon="5.1225">
        <ele>151.06</ele>
        <time>2021-02-15T08:54:51Z</time>
      </trkpt>
      <trkpt lat="43.9171" lon="5.12249">
        <ele>151.54</ele>
        <time>2021-02-15T08:54:54Z</time>
      </trkpt>
      <trkpt lat="43.91697" lon="5.12251">
        <ele>153.47</ele>
        <time>2021-02-15T08:55:09Z</time>
      </trkpt>
      <trkpt lat="43.91686" lon="5.12254">
        <ele>155.87</ele>
        <time>2021-02-15T08:55:22Z</time>
      </trkpt>
      <trkpt lat="43.91675" lon="5.12257">
        <ele>157.79</ele>
        <time>2021-02-15T08:55:38Z</time>
      </trkpt>
      <trkpt lat="43.91668" lon="5.12256">
        <ele>159.72</ele>
        <time>2021-02-15T08:55:52Z</time>
      </trkpt>
      <trkpt lat="43.91652" lon="5.12256">
        <ele>162.6</ele>
        <time>2021-02-15T08:56:09Z</time>
      </trkpt>
      <trkpt lat="43.91639" lon="5.12257">
        <ele>165.48</ele>
        <time>2021-02-15T08:56:25Z</time>
      </trkpt>
      <trkpt lat="43.91628" lon="5.12258">
        <ele>167.41</ele>
        <time>2021-02-15T08:56:39Z</time>
      </trkpt>
      <trkpt lat="43.91616" lon="5.12256">
        <ele>169.81</ele>
        <time>2021-02-15T08:56:53Z</time>
      </trkpt>
      <trkpt lat="43.91606" lon="5.12253">
        <ele>172.69</ele>
        <time>2021-02-15T08:57:08Z</time>
      </trkpt>
      <trkpt lat="43.91594" lon="5.12251">
        <ele>174.62</ele>
        <time>2021-02-15T08:57:24Z</time>
      </trkpt>
      <trkpt lat="43.9158" lon="5.12254">
        <ele>177.5</ele>
        <time>2021-02-15T08:57:41Z</time>
      </trkpt>
      <trkpt lat="43.91578" lon="5.12253">
        <ele>177.5</ele>
        <time>2021-02-15T08:57:43Z</time>
      </trkpt>
      <trkpt lat="43.91568" lon="5.12249">
        <ele>180.38</ele>
        <time>2021-02-15T08:57:57Z</time>
      </trkpt>
      <trkpt lat="43.91557" lon="5.1224">
        <ele>182.79</ele>
        <time>2021-02-15T08:58:12Z</time>
      </trkpt>
      <trkpt lat="43.91544" lon="5.12233">
        <ele>185.19</ele>
        <time>2021-02-15T08:58:27Z</time>
      </trkpt>
      <trkpt lat="43.91532" lon="5.12228">
        <ele>187.59</ele>
        <time>2021-02-15T08:58:40Z</time>
      </trkpt>
      <trkpt lat="43.9152" lon="5.12224">
        <ele>189.04</ele>
        <time>2021-02-15T08:58:54Z</time>
      </trkpt>
      <trkpt lat="43.91509" lon="5.12222">
        <ele>191.92</ele>
        <time>2021-02-15T08:59:09Z</time>
      </trkpt>
      <trkpt lat="43.91498" lon="5.1222">
        <ele>193.36</ele>
        <time>2021-02-15T08:59:23Z</time>
      </trkpt>
      <trkpt lat="43.91496" lon="5.1222">
        <ele>194.32</ele>
        <time>2021-02-15T08:59:25Z</time>
      </trkpt>
      <trkpt lat="43.91491" lon="5.12219">
        <ele>194.32</ele>
        <time>2021-02-15T08:59:30Z</time>
      </trkpt>
      <trkpt lat="43.91479" lon="5.12218">
        <ele>195.28</ele>
        <time>2021-02-15T08:59:43Z</time>
      </trkpt>
      <trkpt lat="43.91467" lon="5.1222">
        <ele>196.73</ele>
        <time>2021-02-15T08:59:56Z</time>
      </trkpt>
      <trkpt lat="43.91456" lon="5.12219">
        <ele>198.17</ele>
        <time>2021-02-15T09:00:08Z</time>
      </trkpt>
      <trkpt lat="43.91448" lon="5.12218">
        <ele>198.65</ele>
        <time>2021-02-15T09:00:23Z</time>
      </trkpt>
      <trkpt lat="43.91449" lon="5.12223">
        <ele>198.65</ele>
        <time>2021-02-15T09:00:49Z</time>
      </trkpt>
      <trkpt lat="43.91447" lon="5.12222">
        <ele>198.65</ele>
        <time>2021-02-15T09:01:09Z</time>
      </trkpt>
      <trkpt lat="43.91444" lon="5.12219">
        <ele>198.17</ele>
        <time>2021-02-15T09:01:34Z</time>
      </trkpt>
      <trkpt lat="43.91446" lon="5.12221">
        <ele>198.17</ele>
        <time>2021-02-15T09:02:08Z</time>
      </trkpt>
      <trkpt lat="43.91445" lon="5.12225">
        <ele>198.17</ele>
        <time>2021-02-15T09:02:44Z</time>
      </trkpt>
      <trkpt lat="43.91449" lon="5.12221">
        <ele>198.17</ele>
        <time>2021-02-15T09:03:05Z</time>
      </trkpt>
      <trkpt lat="43.91446" lon="5.12222">
        <ele>198.17</ele>
        <time>2021-02-15T09:03:21Z</time>
      </trkpt>
      <trkpt lat="43.91449" lon="5.12222">
        <ele>198.17</ele>
        <time>2021-02-15T09:03:46Z</time>
      </trkpt>
      <trkpt lat="43.91451" lon="5.12221">
        <ele>198.17</ele>
        <time>2021-02-15T09:04:05Z</time>
      </trkpt>
      <trkpt lat="43.91454" lon="5.12217">
        <ele>197.69</ele>
        <time>2021-02-15T09:04:40Z</time>
      </trkpt>
      <trkpt lat="43.91448" lon="5.12218">
        <ele>197.69</ele>
        <time>2021-02-15T09:05:14Z</time>
      </trkpt>
      <trkpt lat="43.91446" lon="5.12218">
        <ele>197.69</ele>
        <time>2021-02-15T09:05:42Z</time>
      </trkpt>
      <trkpt lat="43.91446" lon="5.12216">
        <ele>197.69</ele>
        <time>2021-02-15T09:06:06Z</time>
      </trkpt>
      <trkpt lat="43.91445" lon="5.12215">
        <ele>197.69</ele>
        <time>2021-02-15T09:06:24Z</time>
      </trkpt>
      <trkpt lat="43.91445" lon="5.12216">
        <ele>197.69</ele>
        <time>2021-02-15T09:06:50Z</time>
      </trkpt>
      <trkpt lat="43.91445" lon="5.12218">
        <ele>197.69</ele>
        <time>2021-02-15T09:07:02Z</time>
      </trkpt>
      <trkpt lat="43.91447" lon="5.12225">
        <ele>197.69</ele>
        <time>2021-02-15T09:07:15Z</time>
      </trkpt>
      <trkpt lat="43.91445" lon="5.12221">
        <ele>196.73</ele>
        <time>2021-02-15T09:07:31Z</time>
      </trkpt>
      <trkpt lat="43.91446" lon="5.12222">
        <ele>196.73</ele>
        <time>2021-02-15T09:07:57Z</time>
      </trkpt>
      <trkpt lat="43.91448" lon="5.12219">
        <ele>196.73</ele>
        <time>2021-02-15T09:08:19Z</time>
      </trkpt>
      <trkpt lat="43.91449" lon="5.12218">
        <ele>195.77</ele>
        <time>2021-02-15T09:08:36Z</time>
      </trkpt>
      <trkpt lat="43.91448" lon="5.12218">
        <ele>196.25</ele>
        <time>2021-02-15T09:09:07Z</time>
      </trkpt>
      <trkpt lat="43.91447" lon="5.12219">
        <ele>195.28</ele>
        <time>2021-02-15T09:09:43Z</time>
      </trkpt>
      <trkpt lat="43.91452" lon="5.12223">
        <ele>195.28</ele>
        <time>2021-02-15T09:10:14Z</time>
      </trkpt>
      <trkpt lat="43.91449" lon="5.12218">
        <ele>196.73</ele>
        <time>2021-02-15T09:10:36Z</time>
      </trkpt>
      <trkpt lat="43.91447" lon="5.12219">
        <ele>196.25</ele>
        <time>2021-02-15T09:10:52Z</time>
      </trkpt>
      <trkpt lat="43.91447" lon="5.12218">
        <ele>195.77</ele>
        <time>2021-02-15T09:11:06Z</time>
      </trkpt>
      <trkpt lat="43.91446" lon="5.12216">
        <ele>195.77</ele>
        <time>2021-02-15T09:11:35Z</time>
      </trkpt>
      <trkpt lat="43.91449" lon="5.12217">
        <ele>195.77</ele>
        <time>2021-02-15T09:11:55Z</time>
      </trkpt>
      <trkpt lat="43.91443" lon="5.12213">
        <ele>196.73</ele>
        <time>2021-02-15T09:12:19Z</time>
      </trkpt>
      <trkpt lat="43.91431" lon="5.12217">
        <ele>197.21</ele>
        <time>2021-02-15T09:12:35Z</time>
      </trkpt>
      <trkpt lat="43.91413" lon="5.12226">
        <ele>198.65</ele>
        <time>2021-02-15T09:12:55Z</time>
      </trkpt>
      <trkpt lat="43.91401" lon="5.12229">
        <ele>199.13</ele>
        <time>2021-02-15T09:13:07Z</time>
      </trkpt>
      <trkpt lat="43.91398" lon="5.1223">
        <ele>199.13</ele>
        <time>2021-02-15T09:13:10Z</time>
      </trkpt>
      <trkpt lat="43.91394" lon="5.12231">
        <ele>199.61</ele>
        <time>2021-02-15T09:13:13Z</time>
      </trkpt>
      <trkpt lat="43.91378" lon="5.12226">
        <ele>199.61</ele>
        <time>2021-02-15T09:13:29Z</time>
      </trkpt>
      <trkpt lat="43.91365" lon="5.12219">
        <ele>199.61</ele>
        <time>2021-02-15T09:13:43Z</time>
      </trkpt>
      <trkpt lat="43.9135" lon="5.12216">
        <ele>199.13</ele>
        <time>2021-02-15T09:13:58Z</time>
      </trkpt>
      <trkpt lat="43.91343" lon="5.12213">
        <ele>198.17</ele>
        <time>2021-02-15T09:14:08Z</time>
      </trkpt>
      <trkpt lat="43.9133" lon="5.12211">
        <ele>199.13</ele>
        <time>2021-02-15T09:14:20Z</time>
      </trkpt>
      <trkpt lat="43.91313" lon="5.12206">
        <ele>200.09</ele>
        <time>2021-02-15T09:14:35Z</time>
      </trkpt>
      <trkpt lat="43.9131" lon="5.12206">
        <ele>200.09</ele>
        <time>2021-02-15T09:14:37Z</time>
      </trkpt>
      <trkpt lat="43.91297" lon="5.12203">
        <ele>200.57</ele>
        <time>2021-02-15T09:14:51Z</time>
      </trkpt>
      <trkpt lat="43.91289" lon="5.122">
        <ele>200.57</ele>
        <time>2021-02-15T09:14:58Z</time>
      </trkpt>
      <trkpt lat="43.91273" lon="5.12199">
        <ele>200.57</ele>
        <time>2021-02-15T09:15:12Z</time>
      </trkpt>
      <trkpt lat="43.91257" lon="5.12195">
        <ele>201.05</ele>
        <time>2021-02-15T09:15:27Z</time>
      </trkpt>
      <trkpt lat="43.91248" lon="5.1219">
        <ele>200.09</ele>
        <time>2021-02-15T09:15:34Z</time>
      </trkpt>
      <trkpt lat="43.91233" lon="5.12179">
        <ele>199.13</ele>
        <time>2021-02-15T09:15:47Z</time>
      </trkpt>
      <trkpt lat="43.91228" lon="5.12175">
        <ele>198.17</ele>
        <time>2021-02-15T09:15:58Z</time>
      </trkpt>
      <trkpt lat="43.91211" lon="5.12169">
        <ele>198.17</ele>
        <time>2021-02-15T09:16:14Z</time>
      </trkpt>
      <trkpt lat="43.91208" lon="5.12166">
        <ele>198.17</ele>
        <time>2021-02-15T09:16:18Z</time>
      </trkpt>
      <trkpt lat="43.91196" lon="5.12161">
        <ele>198.17</ele>
        <time>2021-02-15T09:16:32Z</time>
      </trkpt>
      <trkpt lat="43.9118" lon="5.1216">
        <ele>198.17</ele>
        <time>2021-02-15T09:16:47Z</time>
      </trkpt>
      <trkpt lat="43.91164" lon="5.12154">
        <ele>198.17</ele>
        <time>2021-02-15T09:17:01Z</time>
      </trkpt>
      <trkpt lat="43.91152" lon="5.12153">
        <ele>199.61</ele>
        <time>2021-02-15T09:17:14Z</time>
      </trkpt>
      <trkpt lat="43.91133" lon="5.12147">
        <ele>199.61</ele>
        <time>2021-02-15T09:17:30Z</time>
      </trkpt>
      <trkpt lat="43.91115" lon="5.12143">
        <ele>201.05</ele>
        <time>2021-02-15T09:17:45Z</time>
      </trkpt>
      <trkpt lat="43.91098" lon="5.12146">
        <ele>201.53</ele>
        <time>2021-02-15T09:18:01Z</time>
      </trkpt>
      <trkpt lat="43.91092" lon="5.12142">
        <ele>202.01</ele>
        <time>2021-02-15T09:18:07Z</time>
      </trkpt>
      <trkpt lat="43.91087" lon="5.12132">
        <ele>201.53</ele>
        <time>2021-02-15T09:18:14Z</time>
      </trkpt>
      <trkpt lat="43.91074" lon="5.12118">
        <ele>202.49</ele>
        <time>2021-02-15T09:18:29Z</time>
      </trkpt>
      <trkpt lat="43.91073" lon="5.12112">
        <ele>202.49</ele>
        <time>2021-02-15T09:18:41Z</time>
      </trkpt>
      <trkpt lat="43.91073" lon="5.12112">
        <ele>201.05</ele>
        <time>2021-02-15T09:18:55Z</time>
      </trkpt>
      <trkpt lat="43.91072" lon="5.12114">
        <ele>200.57</ele>
        <time>2021-02-15T09:19:18Z</time>
      </trkpt>
      <trkpt lat="43.91072" lon="5.12113">
        <ele>201.53</ele>
        <time>2021-02-15T09:19:50Z</time>
      </trkpt>
      <trkpt lat="43.91074" lon="5.12113">
        <ele>201.53</ele>
        <time>2021-02-15T09:20:35Z</time>
      </trkpt>
      <trkpt lat="43.91073" lon="5.12114">
        <ele>201.53</ele>
        <time>2021-02-15T09:21:09Z</time>
      </trkpt>
      <trkpt lat="43.91074" lon="5.12114">
        <ele>201.53</ele>
        <time>2021-02-15T09:21:39Z</time>
      </trkpt>
      <trkpt lat="43.91073" lon="5.12115">
        <ele>201.53</ele>
        <time>2021-02-15T09:22:11Z</time>
      </trkpt>
      <trkpt lat="43.91074" lon="5.12114">
        <ele>201.05</ele>
        <time>2021-02-15T09:22:45Z</time>
      </trkpt>
      <trkpt lat="43.91075" lon="5.12115">
        <ele>201.05</ele>
        <time>2021-02-15T09:23:13Z</time>
      </trkpt>
      <trkpt lat="43.91073" lon="5.12115">
        <ele>201.05</ele>
        <time>2021-02-15T09:23:41Z</time>
      </trkpt>
      <trkpt lat="43.91073" lon="5.12115">
        <ele>201.05</ele>
        <time>2021-02-15T09:24:10Z</time>
      </trkpt>
      <trkpt lat="43.91072" lon="5.12114">
        <ele>201.05</ele>
        <time>2021-02-15T09:24:42Z</time>
      </trkpt>
      <trkpt lat="43.91074" lon="5.12116">
        <ele>201.05</ele>
        <time>2021-02-15T09:25:14Z</time>
      </trkpt>
      <trkpt lat="43.91072" lon="5.12114">
        <ele>201.05</ele>
        <time>2021-02-15T09:25:44Z</time>
      </trkpt>
      <trkpt lat="43.91071" lon="5.12113">
        <ele>201.05</ele>
        <time>2021-02-15T09:26:14Z</time>
      </trkpt>
      <trkpt lat="43.91072" lon="5.12113">
        <ele>201.05</ele>
        <time>2021-02-15T09:26:47Z</time>
      </trkpt>
      <trkpt lat="43.91073" lon="5.12114">
        <ele>201.05</ele>
        <time>2021-02-15T09:27:22Z</time>
      </trkpt>
      <trkpt lat="43.91072" lon="5.12114">
        <ele>201.05</ele>
        <time>2021-02-15T09:27:57Z</time>
      </trkpt>
      <trkpt lat="43.91072" lon="5.12115">
        <ele>200.57</ele>
        <time>2021-02-15T09:28:34Z</time>
      </trkpt>
      <trkpt lat="43.91073" lon="5.12113">
        <ele>200.57</ele>
        <time>2021-02-15T09:29:05Z</time>
      </trkpt>
      <trkpt lat="43.91072" lon="5.12113">
        <ele>200.57</ele>
        <time>2021-02-15T09:29:46Z</time>
      </trkpt>
      <trkpt lat="43.91071" lon="5.12113">
        <ele>200.57</ele>
        <time>2021-02-15T09:30:12Z</time>
      </trkpt>
      <trkpt lat="43.91071" lon="5.12112">
        <ele>200.57</ele>
        <time>2021-02-15T09:30:44Z</time>
      </trkpt>
      <trkpt lat="43.91072" lon="5.12116">
        <ele>203.94</ele>
        <time>2021-02-15T09:31:10Z</time>
      </trkpt>
      <trkpt lat="43.91072" lon="5.12115">
        <ele>199.13</ele>
        <time>2021-02-15T09:31:12Z</time>
      </trkpt>
      <trkpt lat="43.91071" lon="5.12115">
        <ele>202.49</ele>
        <time>2021-02-15T09:31:13Z</time>
      </trkpt>
      <trkpt lat="43.91072" lon="5.12116">
        <ele>201.05</ele>
        <time>2021-02-15T09:31:29Z</time>
      </trkpt>
      <trkpt lat="43.91073" lon="5.12118">
        <ele>201.05</ele>
        <time>2021-02-15T09:31:45Z</time>
      </trkpt>
      <trkpt lat="43.91074" lon="5.1212">
        <ele>200.57</ele>
        <time>2021-02-15T09:32:06Z</time>
      </trkpt>
      <trkpt lat="43.91074" lon="5.12119">
        <ele>200.57</ele>
        <time>2021-02-15T09:32:35Z</time>
      </trkpt>
      <trkpt lat="43.91073" lon="5.12118">
        <ele>200.57</ele>
        <time>2021-02-15T09:33:01Z</time>
      </trkpt>
      <trkpt lat="43.91072" lon="5.12116">
        <ele>200.57</ele>
        <time>2021-02-15T09:33:28Z</time>
      </trkpt>
      <trkpt lat="43.91069" lon="5.12116">
        <ele>200.09</ele>
        <time>2021-02-15T09:33:58Z</time>
      </trkpt>
      <trkpt lat="43.91059" lon="5.12113">
        <ele>200.09</ele>
        <time>2021-02-15T09:34:10Z</time>
      </trkpt>
      <trkpt lat="43.9104" lon="5.12107">
        <ele>200.09</ele>
        <time>2021-02-15T09:34:29Z</time>
      </trkpt>
      <trkpt lat="43.91023" lon="5.12099">
        <ele>200.09</ele>
        <time>2021-02-15T09:34:45Z</time>
      </trkpt>
      <trkpt lat="43.91004" lon="5.12093">
        <ele>199.61</ele>
        <time>2021-02-15T09:35:02Z</time>
      </trkpt>
      <trkpt lat="43.90983" lon="5.12084">
        <ele>199.13</ele>
        <time>2021-02-15T09:35:21Z</time>
      </trkpt>
      <trkpt lat="43.90965" lon="5.12071">
        <ele>198.17</ele>
        <time>2021-02-15T09:35:38Z</time>
      </trkpt>
      <trkpt lat="43.90948" lon="5.12058">
        <ele>197.69</ele>
        <time>2021-02-15T09:35:54Z</time>
      </trkpt>
      <trkpt lat="43.90933" lon="5.12045">
        <ele>197.21</ele>
        <time>2021-02-15T09:36:11Z</time>
      </trkpt>
      <trkpt lat="43.90918" lon="5.12029">
        <ele>198.17</ele>
        <time>2021-02-15T09:36:26Z</time>
      </trkpt>
      <trkpt lat="43.90916" lon="5.12026">
        <ele>197.21</ele>
        <time>2021-02-15T09:36:28Z</time>
      </trkpt>
      <trkpt lat="43.90903" lon="5.12003">
        <ele>197.21</ele>
        <time>2021-02-15T09:36:45Z</time>
      </trkpt>
      <trkpt lat="43.90892" lon="5.11978">
        <ele>196.25</ele>
        <time>2021-02-15T09:37:02Z</time>
      </trkpt>
      <trkpt lat="43.90887" lon="5.1195">
        <ele>196.25</ele>
        <time>2021-02-15T09:37:19Z</time>
      </trkpt>
      <trkpt lat="43.90884" lon="5.11921">
        <ele>195.77</ele>
        <time>2021-02-15T09:37:37Z</time>
      </trkpt>
      <trkpt lat="43.90884" lon="5.11907">
        <ele>195.28</ele>
        <time>2021-02-15T09:37:50Z</time>
      </trkpt>
      <trkpt lat="43.90884" lon="5.11885">
        <ele>193.84</ele>
        <time>2021-02-15T09:38:05Z</time>
      </trkpt>
      <trkpt lat="43.90884" lon="5.11877">
        <ele>192.88</ele>
        <time>2021-02-15T09:38:10Z</time>
      </trkpt>
      <trkpt lat="43.90884" lon="5.11851">
        <ele>191.44</ele>
        <time>2021-02-15T09:38:26Z</time>
      </trkpt>
      <trkpt lat="43.90888" lon="5.11829">
        <ele>189.04</ele>
        <time>2021-02-15T09:38:43Z</time>
      </trkpt>
      <trkpt lat="43.9089" lon="5.11811">
        <ele>187.11</ele>
        <time>2021-02-15T09:38:58Z</time>
      </trkpt>
      <trkpt lat="43.90891" lon="5.1179">
        <ele>184.23</ele>
        <time>2021-02-15T09:39:14Z</time>
      </trkpt>
      <trkpt lat="43.9089" lon="5.1177">
        <ele>181.83</ele>
        <time>2021-02-15T09:39:30Z</time>
      </trkpt>
      <trkpt lat="43.90889" lon="5.11761">
        <ele>180.87</ele>
        <time>2021-02-15T09:39:37Z</time>
      </trkpt>
      <trkpt lat="43.90889" lon="5.11757">
        <ele>180.38</ele>
        <time>2021-02-15T09:39:40Z</time>
      </trkpt>
      <trkpt lat="43.90889" lon="5.11749">
        <ele>179.42</ele>
        <time>2021-02-15T09:39:47Z</time>
      </trkpt>
      <trkpt lat="43.9089" lon="5.1173">
        <ele>177.02</ele>
        <time>2021-02-15T09:40:01Z</time>
      </trkpt>
      <trkpt lat="43.9089" lon="5.11727">
        <ele>176.06</ele>
        <time>2021-02-15T09:40:04Z</time>
      </trkpt>
      <trkpt lat="43.90888" lon="5.11705">
        <ele>173.66</ele>
        <time>2021-02-15T09:40:22Z</time>
      </trkpt>
      <trkpt lat="43.90889" lon="5.11689">
        <ele>171.73</ele>
        <time>2021-02-15T09:40:35Z</time>
      </trkpt>
      <trkpt lat="43.90896" lon="5.11672">
        <ele>169.81</ele>
        <time>2021-02-15T09:40:51Z</time>
      </trkpt>
      <trkpt lat="43.90896" lon="5.11671">
        <ele>169.33</ele>
        <time>2021-02-15T09:40:53Z</time>
      </trkpt>
      <trkpt lat="43.90903" lon="5.11653">
        <ele>167.41</ele>
        <time>2021-02-15T09:41:09Z</time>
      </trkpt>
      <trkpt lat="43.90901" lon="5.1163">
        <ele>165.96</ele>
        <time>2021-02-15T09:41:26Z</time>
      </trkpt>
      <trkpt lat="43.90899" lon="5.11611">
        <ele>164.04</ele>
        <time>2021-02-15T09:41:40Z</time>
      </trkpt>
      <trkpt lat="43.90903" lon="5.11603">
        <ele>163.56</ele>
        <time>2021-02-15T09:41:47Z</time>
      </trkpt>
      <trkpt lat="43.90913" lon="5.11594">
        <ele>162.6</ele>
        <time>2021-02-15T09:41:58Z</time>
      </trkpt>
      <trkpt lat="43.90928" lon="5.11589">
        <ele>161.64</ele>
        <time>2021-02-15T09:42:13Z</time>
      </trkpt>
      <trkpt lat="43.90946" lon="5.11582">
        <ele>161.16</ele>
        <time>2021-02-15T09:42:29Z</time>
      </trkpt>
      <trkpt lat="43.90961" lon="5.11576">
        <ele>160.68</ele>
        <time>2021-02-15T09:42:44Z</time>
      </trkpt>
      <trkpt lat="43.9097" lon="5.11571">
        <ele>159.72</ele>
        <time>2021-02-15T09:42:57Z</time>
      </trkpt>
      <trkpt lat="43.90973" lon="5.11572">
        <ele>159.72</ele>
        <time>2021-02-15T09:43:20Z</time>
      </trkpt>
      <trkpt lat="43.90973" lon="5.11571">
        <ele>160.68</ele>
        <time>2021-02-15T09:43:43Z</time>
      </trkpt>
      <trkpt lat="43.90972" lon="5.11572">
        <ele>159.72</ele>
        <time>2021-02-15T09:44:14Z</time>
      </trkpt>
      <trkpt lat="43.90972" lon="5.11574">
        <ele>159.72</ele>
        <time>2021-02-15T09:44:45Z</time>
      </trkpt>
      <trkpt lat="43.90972" lon="5.11572">
        <ele>159.24</ele>
        <time>2021-02-15T09:45:02Z</time>
      </trkpt>
      <trkpt lat="43.90973" lon="5.11569">
        <ele>159.24</ele>
        <time>2021-02-15T09:45:19Z</time>
      </trkpt>
      <trkpt lat="43.90976" lon="5.11557">
        <ele>158.27</ele>
        <time>2021-02-15T09:45:37Z</time>
      </trkpt>
      <trkpt lat="43.90977" lon="5.11548">
        <ele>157.79</ele>
        <time>2021-02-15T09:45:43Z</time>
      </trkpt>
      <trkpt lat="43.90976" lon="5.11525">
        <ele>154.91</ele>
        <time>2021-02-15T09:46:01Z</time>
      </trkpt>
      <trkpt lat="43.9098" lon="5.11504">
        <ele>152.51</ele>
        <time>2021-02-15T09:46:18Z</time>
      </trkpt>
      <trkpt lat="43.90982" lon="5.11499">
        <ele>151.54</ele>
        <time>2021-02-15T09:46:22Z</time>
      </trkpt>
      <trkpt lat="43.90991" lon="5.11475">
        <ele>150.1</ele>
        <time>2021-02-15T09:46:41Z</time>
      </trkpt>
      <trkpt lat="43.91" lon="5.11456">
        <ele>148.66</ele>
        <time>2021-02-15T09:46:57Z</time>
      </trkpt>
      <trkpt lat="43.91001" lon="5.11453">
        <ele>148.18</ele>
        <time>2021-02-15T09:46:59Z</time>
      </trkpt>
      <trkpt lat="43.91007" lon="5.11439">
        <ele>147.7</ele>
        <time>2021-02-15T09:47:11Z</time>
      </trkpt>
      <trkpt lat="43.91015" lon="5.11417">
        <ele>145.78</ele>
        <time>2021-02-15T09:47:28Z</time>
      </trkpt>
      <trkpt lat="43.91022" lon="5.11408">
        <ele>145.3</ele>
        <time>2021-02-15T09:47:37Z</time>
      </trkpt>
      <trkpt lat="43.91024" lon="5.11405">
        <ele>144.82</ele>
        <time>2021-02-15T09:47:40Z</time>
      </trkpt>
      <trkpt lat="43.91035" lon="5.11385">
        <ele>143.85</ele>
        <time>2021-02-15T09:47:58Z</time>
      </trkpt>
      <trkpt lat="43.9104" lon="5.1137">
        <ele>142.89</ele>
        <time>2021-02-15T09:48:10Z</time>
      </trkpt>
      <trkpt lat="43.91046" lon="5.11349">
        <ele>140.49</ele>
        <time>2021-02-15T09:48:26Z</time>
      </trkpt>
      <trkpt lat="43.91046" lon="5.11333">
        <ele>139.53</ele>
        <time>2021-02-15T09:48:39Z</time>
      </trkpt>
      <trkpt lat="43.9104" lon="5.11315">
        <ele>139.53</ele>
        <time>2021-02-15T09:48:53Z</time>
      </trkpt>
      <trkpt lat="43.91034" lon="5.11298">
        <ele>136.64</ele>
        <time>2021-02-15T09:49:08Z</time>
      </trkpt>
      <trkpt lat="43.91027" lon="5.11278">
        <ele>134.72</ele>
        <time>2021-02-15T09:49:24Z</time>
      </trkpt>
      <trkpt lat="43.91021" lon="5.11268">
        <ele>133.76</ele>
        <time>2021-02-15T09:49:36Z</time>
      </trkpt>
      <trkpt lat="43.91016" lon="5.11255">
        <ele>132.32</ele>
        <time>2021-02-15T09:49:46Z</time>
      </trkpt>
      <trkpt lat="43.91004" lon="5.11238">
        <ele>130.4</ele>
        <time>2021-02-15T09:50:03Z</time>
      </trkpt>
      <trkpt lat="43.90995" lon="5.11225">
        <ele>128.47</ele>
        <time>2021-02-15T09:50:17Z</time>
      </trkpt>
      <trkpt lat="43.90987" lon="5.1121">
        <ele>126.55</ele>
        <time>2021-02-15T09:50:32Z</time>
      </trkpt>
      <trkpt lat="43.90982" lon="5.11203">
        <ele>125.59</ele>
        <time>2021-02-15T09:50:40Z</time>
      </trkpt>
      <trkpt lat="43.90979" lon="5.112">
        <ele>125.11</ele>
        <time>2021-02-15T09:50:43Z</time>
      </trkpt>
      <trkpt lat="43.9097" lon="5.11179">
        <ele>122.71</ele>
        <time>2021-02-15T09:50:59Z</time>
      </trkpt>
      <trkpt lat="43.90963" lon="5.11165">
        <ele>120.78</ele>
        <time>2021-02-15T09:51:12Z</time>
      </trkpt>
      <trkpt lat="43.90957" lon="5.11145">
        <ele>117.9</ele>
        <time>2021-02-15T09:51:27Z</time>
      </trkpt>
      <trkpt lat="43.90952" lon="5.11127">
        <ele>115.98</ele>
        <time>2021-02-15T09:51:43Z</time>
      </trkpt>
      <trkpt lat="43.90949" lon="5.11112">
        <ele>114.05</ele>
        <time>2021-02-15T09:51:55Z</time>
      </trkpt>
      <trkpt lat="43.90941" lon="5.11097">
        <ele>111.17</ele>
        <time>2021-02-15T09:52:11Z</time>
      </trkpt>
      <trkpt lat="43.90933" lon="5.11079">
        <ele>108.77</ele>
        <time>2021-02-15T09:52:26Z</time>
      </trkpt>
      <trkpt lat="43.90928" lon="5.11067">
        <ele>107.32</ele>
        <time>2021-02-15T09:52:36Z</time>
      </trkpt>
      <trkpt lat="43.90928" lon="5.11063">
        <ele>106.84</ele>
        <time>2021-02-15T09:52:39Z</time>
      </trkpt>
      <trkpt lat="43.90928" lon="5.11043">
        <ele>104.92</ele>
        <time>2021-02-15T09:52:54Z</time>
      </trkpt>
      <trkpt lat="43.90937" lon="5.11026">
        <ele>102.52</ele>
        <time>2021-02-15T09:53:10Z</time>
      </trkpt>
      <trkpt lat="43.90944" lon="5.11022">
        <ele>102.04</ele>
        <time>2021-02-15T09:53:18Z</time>
      </trkpt>
      <trkpt lat="43.90961" lon="5.11019">
        <ele>100.11</ele>
        <time>2021-02-15T09:53:35Z</time>
      </trkpt>
      <trkpt lat="43.90967" lon="5.11013">
        <ele>100.11</ele>
        <time>2021-02-15T09:53:50Z</time>
      </trkpt>
      <trkpt lat="43.90967" lon="5.11012">
        <ele>100.11</ele>
        <time>2021-02-15T09:54:08Z</time>
      </trkpt>
      <trkpt lat="43.90966" lon="5.11011">
        <ele>100.11</ele>
        <time>2021-02-15T09:54:27Z</time>
      </trkpt>
      <trkpt lat="43.90969" lon="5.11008">
        <ele>100.11</ele>
        <time>2021-02-15T09:54:49Z</time>
      </trkpt>
      <trkpt lat="43.9097" lon="5.11006">
        <ele>100.11</ele>
        <time>2021-02-15T09:54:56Z</time>
      </trkpt>
      <trkpt lat="43.90972" lon="5.11007">
        <ele>98.67</ele>
        <time>2021-02-15T09:55:09Z</time>
      </trkpt>
      <trkpt lat="43.90972" lon="5.11006">
        <ele>98.67</ele>
        <time>2021-02-15T09:55:34Z</time>
      </trkpt>
      <trkpt lat="43.9097" lon="5.11009">
        <ele>98.67</ele>
        <time>2021-02-15T09:56:01Z</time>
      </trkpt>
      <trkpt lat="43.90972" lon="5.11006">
        <ele>100.11</ele>
        <time>2021-02-15T09:56:32Z</time>
      </trkpt>
      <trkpt lat="43.90971" lon="5.11007">
        <ele>99.15</ele>
        <time>2021-02-15T09:57:12Z</time>
      </trkpt>
      <trkpt lat="43.90971" lon="5.11008">
        <ele>99.15</ele>
        <time>2021-02-15T09:57:38Z</time>
      </trkpt>
      <trkpt lat="43.90972" lon="5.11012">
        <ele>98.67</ele>
        <time>2021-02-15T09:58:05Z</time>
      </trkpt>
      <trkpt lat="43.90974" lon="5.11011">
        <ele>98.67</ele>
        <time>2021-02-15T09:58:35Z</time>
      </trkpt>
      <trkpt lat="43.90984" lon="5.11011">
        <ele>98.67</ele>
        <time>2021-02-15T09:58:51Z</time>
      </trkpt>
      <trkpt lat="43.91001" lon="5.11012">
        <ele>98.67</ele>
        <time>2021-02-15T09:59:06Z</time>
      </trkpt>
      <trkpt lat="43.91003" lon="5.11011">
        <ele>98.67</ele>
        <time>2021-02-15T09:59:09Z</time>
      </trkpt>
      <trkpt lat="43.91022" lon="5.11">
        <ele>98.67</ele>
        <time>2021-02-15T09:59:28Z</time>
      </trkpt>
      <trkpt lat="43.91044" lon="5.10988">
        <ele>98.67</ele>
        <time>2021-02-15T09:59:48Z</time>
      </trkpt>
      <trkpt lat="43.91062" lon="5.10988">
        <ele>98.67</ele>
        <time>2021-02-15T10:00:05Z</time>
      </trkpt>
      <trkpt lat="43.91073" lon="5.11002">
        <ele>98.19</ele>
        <time>2021-02-15T10:00:19Z</time>
      </trkpt>
      <trkpt lat="43.91085" lon="5.11023">
        <ele>98.19</ele>
        <time>2021-02-15T10:00:36Z</time>
      </trkpt>
      <trkpt lat="43.91095" lon="5.11039">
        <ele>98.19</ele>
        <time>2021-02-15T10:00:50Z</time>
      </trkpt>
      <trkpt lat="43.91108" lon="5.11058">
        <ele>98.19</ele>
        <time>2021-02-15T10:01:07Z</time>
      </trkpt>
      <trkpt lat="43.91122" lon="5.11076">
        <ele>98.19</ele>
        <time>2021-02-15T10:01:24Z</time>
      </trkpt>
      <trkpt lat="43.91138" lon="5.11098">
        <ele>98.19</ele>
        <time>2021-02-15T10:01:41Z</time>
      </trkpt>
      <trkpt lat="43.91153" lon="5.11119">
        <ele>98.19</ele>
        <time>2021-02-15T10:01:59Z</time>
      </trkpt>
      <trkpt lat="43.91165" lon="5.11133">
        <ele>98.19</ele>
        <time>2021-02-15T10:02:12Z</time>
      </trkpt>
      <trkpt lat="43.9118" lon="5.11148">
        <ele>98.19</ele>
        <time>2021-02-15T10:02:28Z</time>
      </trkpt>
      <trkpt lat="43.91187" lon="5.11156">
        <ele>98.19</ele>
        <time>2021-02-15T10:02:35Z</time>
      </trkpt>
      <trkpt lat="43.91194" lon="5.11164">
        <ele>98.19</ele>
        <time>2021-02-15T10:02:43Z</time>
      </trkpt>
      <trkpt lat="43.91209" lon="5.11184">
        <ele>98.19</ele>
        <time>2021-02-15T10:03:01Z</time>
      </trkpt>
      <trkpt lat="43.91221" lon="5.11195">
        <ele>99.63</ele>
        <time>2021-02-15T10:03:14Z</time>
      </trkpt>
      <trkpt lat="43.91238" lon="5.11213">
        <ele>99.63</ele>
        <time>2021-02-15T10:03:34Z</time>
      </trkpt>
      <trkpt lat="43.91248" lon="5.11238">
        <ele>99.63</ele>
        <time>2021-02-15T10:03:53Z</time>
      </trkpt>
      <trkpt lat="43.91244" lon="5.11258">
        <ele>99.63</ele>
        <time>2021-02-15T10:04:05Z</time>
      </trkpt>
      <trkpt lat="43.91258" lon="5.11268">
        <ele>99.63</ele>
        <time>2021-02-15T10:04:21Z</time>
      </trkpt>
      <trkpt lat="43.91276" lon="5.11269">
        <ele>99.63</ele>
        <time>2021-02-15T10:04:37Z</time>
      </trkpt>
      <trkpt lat="43.91295" lon="5.11275">
        <ele>99.63</ele>
        <time>2021-02-15T10:04:52Z</time>
      </trkpt>
      <trkpt lat="43.91302" lon="5.1128">
        <ele>99.63</ele>
        <time>2021-02-15T10:04:59Z</time>
      </trkpt>
      <trkpt lat="43.91321" lon="5.11285">
        <ele>99.63</ele>
        <time>2021-02-15T10:05:15Z</time>
      </trkpt>
      <trkpt lat="43.91334" lon="5.11283">
        <ele>99.63</ele>
        <time>2021-02-15T10:05:27Z</time>
      </trkpt>
      <trkpt lat="43.91335" lon="5.11282">
        <ele>99.63</ele>
        <time>2021-02-15T10:05:29Z</time>
      </trkpt>
      <trkpt lat="43.91345" lon="5.11261">
        <ele>99.63</ele>
        <time>2021-02-15T10:05:44Z</time>
      </trkpt>
      <trkpt lat="43.91357" lon="5.11244">
        <ele>99.63</ele>
        <time>2021-02-15T10:05:59Z</time>
      </trkpt>
      <trkpt lat="43.91377" lon="5.11239">
        <ele>99.63</ele>
        <time>2021-02-15T10:06:16Z</time>
      </trkpt>
      <trkpt lat="43.91394" lon="5.1124">
        <ele>99.63</ele>
        <time>2021-02-15T10:06:31Z</time>
      </trkpt>
      <trkpt lat="43.91413" lon="5.11247">
        <ele>98.19</ele>
        <time>2021-02-15T10:06:47Z</time>
      </trkpt>
      <trkpt lat="43.91432" lon="5.11259">
        <ele>98.19</ele>
        <time>2021-02-15T10:07:05Z</time>
      </trkpt>
      <trkpt lat="43.9145" lon="5.11268">
        <ele>98.19</ele>
        <time>2021-02-15T10:07:22Z</time>
      </trkpt>
      <trkpt lat="43.9147" lon="5.11275">
        <ele>98.19</ele>
        <time>2021-02-15T10:07:39Z</time>
      </trkpt>
      <trkpt lat="43.91475" lon="5.11278">
        <ele>98.19</ele>
        <time>2021-02-15T10:07:44Z</time>
      </trkpt>
      <trkpt lat="43.91484" lon="5.11281">
        <ele>98.19</ele>
        <time>2021-02-15T10:07:53Z</time>
      </trkpt>
      <trkpt lat="43.91485" lon="5.11282">
        <ele>98.19</ele>
        <time>2021-02-15T10:07:55Z</time>
      </trkpt>
      <trkpt lat="43.91488" lon="5.11284">
        <ele>98.19</ele>
        <time>2021-02-15T10:07:58Z</time>
      </trkpt>
      <trkpt lat="43.91499" lon="5.113">
        <ele>98.19</ele>
        <time>2021-02-15T10:08:15Z</time>
      </trkpt>
      <trkpt lat="43.91499" lon="5.11303">
        <ele>97.71</ele>
        <time>2021-02-15T10:08:31Z</time>
      </trkpt>
      <trkpt lat="43.91497" lon="5.11302">
        <ele>99.15</ele>
        <time>2021-02-15T10:08:56Z</time>
      </trkpt>
      <trkpt lat="43.91497" lon="5.11302">
        <ele>99.15</ele>
        <time>2021-02-15T10:08:57Z</time>
      </trkpt>
      <trkpt lat="43.91501" lon="5.11305">
        <ele>97.71</ele>
        <time>2021-02-15T10:09:12Z</time>
      </trkpt>
      <trkpt lat="43.91499" lon="5.11308">
        <ele>97.71</ele>
        <time>2021-02-15T10:09:33Z</time>
      </trkpt>
      <trkpt lat="43.915" lon="5.11306">
        <ele>97.71</ele>
        <time>2021-02-15T10:09:58Z</time>
      </trkpt>
      <trkpt lat="43.91502" lon="5.11305">
        <ele>97.71</ele>
        <time>2021-02-15T10:10:39Z</time>
      </trkpt>
      <trkpt lat="43.915" lon="5.11308">
        <ele>97.71</ele>
        <time>2021-02-15T10:11:27Z</time>
      </trkpt>
      <trkpt lat="43.91502" lon="5.11308">
        <ele>99.15</ele>
        <time>2021-02-15T10:11:34Z</time>
      </trkpt>
      <trkpt lat="43.91504" lon="5.11307">
        <ele>99.63</ele>
        <time>2021-02-15T10:11:38Z</time>
      </trkpt>
      <trkpt lat="43.91508" lon="5.11304">
        <ele>98.19</ele>
        <time>2021-02-15T10:11:41Z</time>
      </trkpt>
      <trkpt lat="43.91519" lon="5.11296">
        <ele>98.19</ele>
        <time>2021-02-15T10:11:55Z</time>
      </trkpt>
      <trkpt lat="43.91524" lon="5.11293">
        <ele>98.67</ele>
        <time>2021-02-15T10:12:11Z</time>
      </trkpt>
      <trkpt lat="43.91533" lon="5.11289">
        <ele>98.67</ele>
        <time>2021-02-15T10:12:31Z</time>
      </trkpt>
      <trkpt lat="43.9154" lon="5.11286">
        <ele>97.23</ele>
        <time>2021-02-15T10:12:39Z</time>
      </trkpt>
      <trkpt lat="43.91551" lon="5.11281">
        <ele>97.23</ele>
        <time>2021-02-15T10:12:54Z</time>
      </trkpt>
      <trkpt lat="43.91565" lon="5.11274">
        <ele>98.67</ele>
        <time>2021-02-15T10:13:10Z</time>
      </trkpt>
      <trkpt lat="43.91584" lon="5.11266">
        <ele>97.23</ele>
        <time>2021-02-15T10:13:28Z</time>
      </trkpt>
      <trkpt lat="43.91585" lon="5.11266">
        <ele>97.23</ele>
        <time>2021-02-15T10:13:29Z</time>
      </trkpt>
      <trkpt lat="43.91602" lon="5.11258">
        <ele>96.75</ele>
        <time>2021-02-15T10:13:46Z</time>
      </trkpt>
      <trkpt lat="43.9161" lon="5.11254">
        <ele>96.75</ele>
        <time>2021-02-15T10:13:55Z</time>
      </trkpt>
      <trkpt lat="43.91623" lon="5.11249">
        <ele>97.71</ele>
        <time>2021-02-15T10:14:10Z</time>
      </trkpt>
      <trkpt lat="43.91625" lon="5.11248">
        <ele>97.71</ele>
        <time>2021-02-15T10:14:16Z</time>
      </trkpt>
      <trkpt lat="43.91627" lon="5.11245">
        <ele>97.71</ele>
        <time>2021-02-15T10:14:19Z</time>
      </trkpt>
      <trkpt lat="43.91628" lon="5.11237">
        <ele>97.71</ele>
        <time>2021-02-15T10:14:34Z</time>
      </trkpt>
      <trkpt lat="43.91628" lon="5.11237">
        <ele>96.75</ele>
        <time>2021-02-15T10:14:56Z</time>
      </trkpt>
      <trkpt lat="43.91629" lon="5.11237">
        <ele>96.75</ele>
        <time>2021-02-15T10:14:57Z</time>
      </trkpt>
      <trkpt lat="43.9163" lon="5.11234">
        <ele>97.71</ele>
        <time>2021-02-15T10:15:25Z</time>
      </trkpt>
      <trkpt lat="43.91629" lon="5.11235">
        <ele>98.67</ele>
        <time>2021-02-15T10:15:37Z</time>
      </trkpt>
      <trkpt lat="43.9163" lon="5.11236">
        <ele>97.23</ele>
        <time>2021-02-15T10:15:39Z</time>
      </trkpt>
      <trkpt lat="43.91629" lon="5.11234">
        <ele>98.67</ele>
        <time>2021-02-15T10:15:56Z</time>
      </trkpt>
      <trkpt lat="43.91628" lon="5.11232">
        <ele>98.67</ele>
        <time>2021-02-15T10:16:09Z</time>
      </trkpt>
      <trkpt lat="43.91628" lon="5.11225">
        <ele>98.67</ele>
        <time>2021-02-15T10:16:32Z</time>
      </trkpt>
      <trkpt lat="43.91633" lon="5.11208">
        <ele>98.67</ele>
        <time>2021-02-15T10:16:46Z</time>
      </trkpt>
      <trkpt lat="43.91633" lon="5.11207">
        <ele>98.67</ele>
        <time>2021-02-15T10:16:47Z</time>
      </trkpt>
      <trkpt lat="43.91647" lon="5.11191">
        <ele>98.67</ele>
        <time>2021-02-15T10:17:04Z</time>
      </trkpt>
      <trkpt lat="43.91662" lon="5.11175">
        <ele>98.67</ele>
        <time>2021-02-15T10:17:20Z</time>
      </trkpt>
      <trkpt lat="43.91671" lon="5.11165">
        <ele>96.75</ele>
        <time>2021-02-15T10:17:30Z</time>
      </trkpt>
      <trkpt lat="43.91685" lon="5.11153">
        <ele>96.75</ele>
        <time>2021-02-15T10:17:46Z</time>
      </trkpt>
      <trkpt lat="43.91704" lon="5.11143">
        <ele>96.75</ele>
        <time>2021-02-15T10:18:04Z</time>
      </trkpt>
      <trkpt lat="43.91723" lon="5.11134">
        <ele>96.75</ele>
        <time>2021-02-15T10:18:20Z</time>
      </trkpt>
      <trkpt lat="43.91742" lon="5.11129">
        <ele>96.75</ele>
        <time>2021-02-15T10:18:35Z</time>
      </trkpt>
      <trkpt lat="43.91761" lon="5.11124">
        <ele>96.75</ele>
        <time>2021-02-15T10:18:51Z</time>
      </trkpt>
      <trkpt lat="43.91779" lon="5.11124">
        <ele>98.19</ele>
        <time>2021-02-15T10:19:06Z</time>
      </trkpt>
      <trkpt lat="43.91794" lon="5.11121">
        <ele>98.19</ele>
        <time>2021-02-15T10:19:19Z</time>
      </trkpt>
      <trkpt lat="43.91808" lon="5.11117">
        <ele>98.19</ele>
        <time>2021-02-15T10:19:32Z</time>
      </trkpt>
      <trkpt lat="43.9183" lon="5.11115">
        <ele>98.19</ele>
        <time>2021-02-15T10:19:49Z</time>
      </trkpt>
      <trkpt lat="43.91843" lon="5.11112">
        <ele>98.19</ele>
        <time>2021-02-15T10:20:01Z</time>
      </trkpt>
      <trkpt lat="43.91865" lon="5.11103">
        <ele>98.19</ele>
        <time>2021-02-15T10:20:17Z</time>
      </trkpt>
      <trkpt lat="43.91889" lon="5.11088">
        <ele>98.19</ele>
        <time>2021-02-15T10:20:36Z</time>
      </trkpt>
      <trkpt lat="43.91906" lon="5.11071">
        <ele>98.19</ele>
        <time>2021-02-15T10:20:53Z</time>
      </trkpt>
      <trkpt lat="43.91921" lon="5.11054">
        <ele>98.67</ele>
        <time>2021-02-15T10:21:09Z</time>
      </trkpt>
      <trkpt lat="43.91924" lon="5.11056">
        <ele>98.67</ele>
        <time>2021-02-15T10:21:13Z</time>
      </trkpt>
      <trkpt lat="43.91938" lon="5.11072">
        <ele>98.19</ele>
        <time>2021-02-15T10:21:32Z</time>
      </trkpt>
      <trkpt lat="43.91941" lon="5.11075">
        <ele>99.63</ele>
        <time>2021-02-15T10:21:36Z</time>
      </trkpt>
      <trkpt lat="43.91945" lon="5.11083">
        <ele>99.63</ele>
        <time>2021-02-15T10:21:43Z</time>
      </trkpt>
      <trkpt lat="43.91945" lon="5.11084">
        <ele>99.63</ele>
        <time>2021-02-15T10:21:57Z</time>
      </trkpt>
      <trkpt lat="43.91945" lon="5.11084">
        <ele>98.19</ele>
        <time>2021-02-15T10:22:07Z</time>
      </trkpt>
      <trkpt lat="43.91949" lon="5.11087">
        <ele>98.19</ele>
        <time>2021-02-15T10:22:37Z</time>
      </trkpt>
      <trkpt lat="43.91946" lon="5.11084">
        <ele>98.19</ele>
        <time>2021-02-15T10:23:12Z</time>
      </trkpt>
      <trkpt lat="43.91946" lon="5.11082">
        <ele>98.19</ele>
        <time>2021-02-15T10:23:37Z</time>
      </trkpt>
      <trkpt lat="43.91946" lon="5.11083">
        <ele>97.71</ele>
        <time>2021-02-15T10:23:47Z</time>
      </trkpt>
      <trkpt lat="43.91946" lon="5.11085">
        <ele>100.11</ele>
        <time>2021-02-15T10:24:16Z</time>
      </trkpt>
      <trkpt lat="43.91947" lon="5.11085">
        <ele>99.63</ele>
        <time>2021-02-15T10:24:34Z</time>
      </trkpt>
      <trkpt lat="43.91947" lon="5.11084">
        <ele>98.19</ele>
        <time>2021-02-15T10:24:38Z</time>
      </trkpt>
      <trkpt lat="43.91947" lon="5.11086">
        <ele>98.19</ele>
        <time>2021-02-15T10:24:51Z</time>
      </trkpt>
      <trkpt lat="43.91946" lon="5.11087">
        <ele>98.19</ele>
        <time>2021-02-15T10:25:07Z</time>
      </trkpt>
      <trkpt lat="43.91945" lon="5.11093">
        <ele>98.67</ele>
        <time>2021-02-15T10:25:21Z</time>
      </trkpt>
      <trkpt lat="43.91946" lon="5.11098">
        <ele>99.63</ele>
        <time>2021-02-15T10:25:25Z</time>
      </trkpt>
      <trkpt lat="43.91954" lon="5.11113">
        <ele>101.08</ele>
        <time>2021-02-15T10:25:40Z</time>
      </trkpt>
      <trkpt lat="43.91955" lon="5.11114">
        <ele>101.08</ele>
        <time>2021-02-15T10:25:41Z</time>
      </trkpt>
      <trkpt lat="43.91967" lon="5.11127">
        <ele>102.52</ele>
        <time>2021-02-15T10:25:58Z</time>
      </trkpt>
      <trkpt lat="43.91975" lon="5.1113">
        <ele>103.48</ele>
        <time>2021-02-15T10:26:07Z</time>
      </trkpt>
      <trkpt lat="43.91988" lon="5.11134">
        <ele>105.88</ele>
        <time>2021-02-15T10:26:21Z</time>
      </trkpt>
      <trkpt lat="43.91998" lon="5.11142">
        <ele>106.36</ele>
        <time>2021-02-15T10:26:34Z</time>
      </trkpt>
      <trkpt lat="43.92007" lon="5.1115">
        <ele>107.32</ele>
        <time>2021-02-15T10:26:48Z</time>
      </trkpt>
      <trkpt lat="43.92016" lon="5.11159">
        <ele>108.77</ele>
        <time>2021-02-15T10:27:03Z</time>
      </trkpt>
      <trkpt lat="43.92025" lon="5.11168">
        <ele>109.73</ele>
        <time>2021-02-15T10:27:18Z</time>
      </trkpt>
      <trkpt lat="43.92041" lon="5.11171">
        <ele>112.13</ele>
        <time>2021-02-15T10:27:35Z</time>
      </trkpt>
      <trkpt lat="43.92053" lon="5.11178">
        <ele>113.09</ele>
        <time>2021-02-15T10:27:49Z</time>
      </trkpt>
      <trkpt lat="43.92065" lon="5.11182">
        <ele>114.53</ele>
        <time>2021-02-15T10:28:03Z</time>
      </trkpt>
      <trkpt lat="43.92073" lon="5.11192">
        <ele>116.46</ele>
        <time>2021-02-15T10:28:17Z</time>
      </trkpt>
      <trkpt lat="43.92085" lon="5.11205">
        <ele>118.38</ele>
        <time>2021-02-15T10:28:37Z</time>
      </trkpt>
      <trkpt lat="43.92104" lon="5.11204">
        <ele>119.82</ele>
        <time>2021-02-15T10:28:56Z</time>
      </trkpt>
      <trkpt lat="43.92119" lon="5.112">
        <ele>120.78</ele>
        <time>2021-02-15T10:29:10Z</time>
      </trkpt>
      <trkpt lat="43.92122" lon="5.11204">
        <ele>120.78</ele>
        <time>2021-02-15T10:29:24Z</time>
      </trkpt>
      <trkpt lat="43.9212" lon="5.11201">
        <ele>120.78</ele>
        <time>2021-02-15T10:29:46Z</time>
      </trkpt>
      <trkpt lat="43.92121" lon="5.112">
        <ele>120.78</ele>
        <time>2021-02-15T10:30:11Z</time>
      </trkpt>
      <trkpt lat="43.92122" lon="5.11204">
        <ele>121.26</ele>
        <time>2021-02-15T10:30:34Z</time>
      </trkpt>
      <trkpt lat="43.92121" lon="5.112">
        <ele>121.74</ele>
        <time>2021-02-15T10:30:55Z</time>
      </trkpt>
      <trkpt lat="43.92119" lon="5.11199">
        <ele>121.74</ele>
        <time>2021-02-15T10:31:28Z</time>
      </trkpt>
      <trkpt lat="43.92122" lon="5.11195">
        <ele>121.74</ele>
        <time>2021-02-15T10:32:00Z</time>
      </trkpt>
      <trkpt lat="43.92121" lon="5.11198">
        <ele>121.74</ele>
        <time>2021-02-15T10:32:26Z</time>
      </trkpt>
      <trkpt lat="43.92121" lon="5.11199">
        <ele>121.74</ele>
        <time>2021-02-15T10:32:52Z</time>
      </trkpt>
      <trkpt lat="43.92122" lon="5.11204">
        <ele>122.71</ele>
        <time>2021-02-15T10:33:22Z</time>
      </trkpt>
      <trkpt lat="43.92119" lon="5.11206">
        <ele>121.26</ele>
        <time>2021-02-15T10:33:53Z</time>
      </trkpt>
      <trkpt lat="43.92119" lon="5.11211">
        <ele>121.26</ele>
        <time>2021-02-15T10:34:23Z</time>
      </trkpt>
      <trkpt lat="43.92119" lon="5.11212">
        <ele>121.26</ele>
        <time>2021-02-15T10:34:42Z</time>
      </trkpt>
      <trkpt lat="43.9212" lon="5.11209">
        <ele>121.74</ele>
        <time>2021-02-15T10:35:10Z</time>
      </trkpt>
      <trkpt lat="43.92118" lon="5.11205">
        <ele>120.78</ele>
        <time>2021-02-15T10:35:41Z</time>
      </trkpt>
      <trkpt lat="43.92117" lon="5.11205">
        <ele>120.78</ele>
        <time>2021-02-15T10:36:06Z</time>
      </trkpt>
      <trkpt lat="43.9212" lon="5.11207">
        <ele>122.22</ele>
        <time>2021-02-15T10:36:29Z</time>
      </trkpt>
      <trkpt lat="43.92117" lon="5.11211">
        <ele>121.26</ele>
        <time>2021-02-15T10:37:00Z</time>
      </trkpt>
      <trkpt lat="43.92123" lon="5.11206">
        <ele>120.78</ele>
        <time>2021-02-15T10:37:22Z</time>
      </trkpt>
      <trkpt lat="43.92124" lon="5.11201">
        <ele>120.78</ele>
        <time>2021-02-15T10:37:52Z</time>
      </trkpt>
      <trkpt lat="43.92123" lon="5.11205">
        <ele>121.74</ele>
        <time>2021-02-15T10:38:17Z</time>
      </trkpt>
      <trkpt lat="43.92121" lon="5.11214">
        <ele>121.74</ele>
        <time>2021-02-15T10:38:31Z</time>
      </trkpt>
      <trkpt lat="43.92115" lon="5.11231">
        <ele>123.19</ele>
        <time>2021-02-15T10:38:46Z</time>
      </trkpt>
      <trkpt lat="43.9211" lon="5.11253">
        <ele>124.15</ele>
        <time>2021-02-15T10:39:02Z</time>
      </trkpt>
      <trkpt lat="43.92108" lon="5.11263">
        <ele>125.11</ele>
        <time>2021-02-15T10:39:20Z</time>
      </trkpt>
      <trkpt lat="43.92104" lon="5.11279">
        <ele>127.51</ele>
        <time>2021-02-15T10:39:34Z</time>
      </trkpt>
      <trkpt lat="43.92101" lon="5.11292">
        <ele>130.4</ele>
        <time>2021-02-15T10:39:45Z</time>
      </trkpt>
      <trkpt lat="43.92108" lon="5.11303">
        <ele>130.88</ele>
        <time>2021-02-15T10:40:01Z</time>
      </trkpt>
      <trkpt lat="43.92118" lon="5.11306">
        <ele>130.88</ele>
        <time>2021-02-15T10:40:18Z</time>
      </trkpt>
      <trkpt lat="43.9213" lon="5.11306">
        <ele>130.88</ele>
        <time>2021-02-15T10:40:33Z</time>
      </trkpt>
      <trkpt lat="43.9214" lon="5.11306">
        <ele>130.88</ele>
        <time>2021-02-15T10:40:47Z</time>
      </trkpt>
      <trkpt lat="43.92143" lon="5.11305">
        <ele>130.88</ele>
        <time>2021-02-15T10:41:05Z</time>
      </trkpt>
      <trkpt lat="43.92155" lon="5.11301">
        <ele>130.88</ele>
        <time>2021-02-15T10:41:23Z</time>
      </trkpt>
      <trkpt lat="43.92171" lon="5.1131">
        <ele>131.36</ele>
        <time>2021-02-15T10:41:42Z</time>
      </trkpt>
      <trkpt lat="43.92186" lon="5.11307">
        <ele>131.84</ele>
        <time>2021-02-15T10:41:57Z</time>
      </trkpt>
      <trkpt lat="43.92204" lon="5.113">
        <ele>132.32</ele>
        <time>2021-02-15T10:42:15Z</time>
      </trkpt>
      <trkpt lat="43.92216" lon="5.11296">
        <ele>133.28</ele>
        <time>2021-02-15T10:42:29Z</time>
      </trkpt>
      <trkpt lat="43.92228" lon="5.11295">
        <ele>134.72</ele>
        <time>2021-02-15T10:42:46Z</time>
      </trkpt>
      <trkpt lat="43.92237" lon="5.11301">
        <ele>135.2</ele>
        <time>2021-02-15T10:43:00Z</time>
      </trkpt>
      <trkpt lat="43.92246" lon="5.11297">
        <ele>134.72</ele>
        <time>2021-02-15T10:43:09Z</time>
      </trkpt>
      <trkpt lat="43.92264" lon="5.11291">
        <ele>137.13</ele>
        <time>2021-02-15T10:43:25Z</time>
      </trkpt>
      <trkpt lat="43.92278" lon="5.11289">
        <ele>138.09</ele>
        <time>2021-02-15T10:43:41Z</time>
      </trkpt>
      <trkpt lat="43.9229" lon="5.11286">
        <ele>139.05</ele>
        <time>2021-02-15T10:43:56Z</time>
      </trkpt>
      <trkpt lat="43.92294" lon="5.11284">
        <ele>139.53</ele>
        <time>2021-02-15T10:44:01Z</time>
      </trkpt>
      <trkpt lat="43.92308" lon="5.11278">
        <ele>140.97</ele>
        <time>2021-02-15T10:44:16Z</time>
      </trkpt>
      <trkpt lat="43.92319" lon="5.11276">
        <ele>142.41</ele>
        <time>2021-02-15T10:44:29Z</time>
      </trkpt>
      <trkpt lat="43.92331" lon="5.11271">
        <ele>144.34</ele>
        <time>2021-02-15T10:44:44Z</time>
      </trkpt>
      <trkpt lat="43.92345" lon="5.11266">
        <ele>145.78</ele>
        <time>2021-02-15T10:44:58Z</time>
      </trkpt>
      <trkpt lat="43.92358" lon="5.1126">
        <ele>147.22</ele>
        <time>2021-02-15T10:45:13Z</time>
      </trkpt>
      <trkpt lat="43.92371" lon="5.11253">
        <ele>147.7</ele>
        <time>2021-02-15T10:45:26Z</time>
      </trkpt>
      <trkpt lat="43.92382" lon="5.11253">
        <ele>149.14</ele>
        <time>2021-02-15T10:45:39Z</time>
      </trkpt>
      <trkpt lat="43.92393" lon="5.11251">
        <ele>150.58</ele>
        <time>2021-02-15T10:45:53Z</time>
      </trkpt>
      <trkpt lat="43.92405" lon="5.11245">
        <ele>151.54</ele>
        <time>2021-02-15T10:46:08Z</time>
      </trkpt>
      <trkpt lat="43.9241" lon="5.11242">
        <ele>152.03</ele>
        <time>2021-02-15T10:46:24Z</time>
      </trkpt>
      <trkpt lat="43.92411" lon="5.11243">
        <ele>152.51</ele>
        <time>2021-02-15T10:46:50Z</time>
      </trkpt>
      <trkpt lat="43.92412" lon="5.11244">
        <ele>152.51</ele>
        <time>2021-02-15T10:47:22Z</time>
      </trkpt>
      <trkpt lat="43.92409" lon="5.11242">
        <ele>152.51</ele>
        <time>2021-02-15T10:47:54Z</time>
      </trkpt>
      <trkpt lat="43.92409" lon="5.1124">
        <ele>152.51</ele>
        <time>2021-02-15T10:48:20Z</time>
      </trkpt>
      <trkpt lat="43.9241" lon="5.11239">
        <ele>152.51</ele>
        <time>2021-02-15T10:48:57Z</time>
      </trkpt>
      <trkpt lat="43.92414" lon="5.1124">
        <ele>152.51</ele>
        <time>2021-02-15T10:49:21Z</time>
      </trkpt>
      <trkpt lat="43.92413" lon="5.11242">
        <ele>152.51</ele>
        <time>2021-02-15T10:49:53Z</time>
      </trkpt>
      <trkpt lat="43.92412" lon="5.1124">
        <ele>151.06</ele>
        <time>2021-02-15T10:50:18Z</time>
      </trkpt>
      <trkpt lat="43.92414" lon="5.11242">
        <ele>151.06</ele>
        <time>2021-02-15T10:50:41Z</time>
      </trkpt>
      <trkpt lat="43.9241" lon="5.11236">
        <ele>151.06</ele>
        <time>2021-02-15T10:51:19Z</time>
      </trkpt>
      <trkpt lat="43.92411" lon="5.11241">
        <ele>151.06</ele>
        <time>2021-02-15T10:51:48Z</time>
      </trkpt>
      <trkpt lat="43.92408" lon="5.11236">
        <ele>151.06</ele>
        <time>2021-02-15T10:52:15Z</time>
      </trkpt>
      <trkpt lat="43.92411" lon="5.11239">
        <ele>151.06</ele>
        <time>2021-02-15T10:52:41Z</time>
      </trkpt>
      <trkpt lat="43.92412" lon="5.1124">
        <ele>151.06</ele>
        <time>2021-02-15T10:53:11Z</time>
      </trkpt>
      <trkpt lat="43.92411" lon="5.11241">
        <ele>150.1</ele>
        <time>2021-02-15T10:53:36Z</time>
      </trkpt>
      <trkpt lat="43.9241" lon="5.11239">
        <ele>151.06</ele>
        <time>2021-02-15T10:53:56Z</time>
      </trkpt>
      <trkpt lat="43.92408" lon="5.11238">
        <ele>151.06</ele>
        <time>2021-02-15T10:54:26Z</time>
      </trkpt>
      <trkpt lat="43.9241" lon="5.11237">
        <ele>151.06</ele>
        <time>2021-02-15T10:55:02Z</time>
      </trkpt>
      <trkpt lat="43.92408" lon="5.11239">
        <ele>150.58</ele>
        <time>2021-02-15T10:55:27Z</time>
      </trkpt>
      <trkpt lat="43.92411" lon="5.11242">
        <ele>150.58</ele>
        <time>2021-02-15T10:55:52Z</time>
      </trkpt>
      <trkpt lat="43.9241" lon="5.11243">
        <ele>152.03</ele>
        <time>2021-02-15T10:56:16Z</time>
      </trkpt>
      <trkpt lat="43.92412" lon="5.11242">
        <ele>150.58</ele>
        <time>2021-02-15T10:56:40Z</time>
      </trkpt>
      <trkpt lat="43.92413" lon="5.11241">
        <ele>150.58</ele>
        <time>2021-02-15T10:56:59Z</time>
      </trkpt>
      <trkpt lat="43.92412" lon="5.1124">
        <ele>150.58</ele>
        <time>2021-02-15T10:57:20Z</time>
      </trkpt>
      <trkpt lat="43.92411" lon="5.1124">
        <ele>152.03</ele>
        <time>2021-02-15T10:57:26Z</time>
      </trkpt>
      <trkpt lat="43.92411" lon="5.1124">
        <ele>150.58</ele>
        <time>2021-02-15T10:57:38Z</time>
      </trkpt>
      <trkpt lat="43.92411" lon="5.11237">
        <ele>150.58</ele>
        <time>2021-02-15T10:58:04Z</time>
      </trkpt>
      <trkpt lat="43.92416" lon="5.1124">
        <ele>151.06</ele>
        <time>2021-02-15T10:58:31Z</time>
      </trkpt>
      <trkpt lat="43.92416" lon="5.11241">
        <ele>151.06</ele>
        <time>2021-02-15T10:58:59Z</time>
      </trkpt>
      <trkpt lat="43.92415" lon="5.11243">
        <ele>152.51</ele>
        <time>2021-02-15T10:59:08Z</time>
      </trkpt>
      <trkpt lat="43.92412" lon="5.11243">
        <ele>151.06</ele>
        <time>2021-02-15T10:59:38Z</time>
      </trkpt>
      <trkpt lat="43.92412" lon="5.11243">
        <ele>151.06</ele>
        <time>2021-02-15T11:00:12Z</time>
      </trkpt>
      <trkpt lat="43.92412" lon="5.11241">
        <ele>151.06</ele>
        <time>2021-02-15T11:00:39Z</time>
      </trkpt>
      <trkpt lat="43.92411" lon="5.11234">
        <ele>150.58</ele>
        <time>2021-02-15T11:00:54Z</time>
      </trkpt>
      <trkpt lat="43.92411" lon="5.11229">
        <ele>150.58</ele>
        <time>2021-02-15T11:00:59Z</time>
      </trkpt>
      <trkpt lat="43.92412" lon="5.1122">
        <ele>150.58</ele>
        <time>2021-02-15T11:01:05Z</time>
      </trkpt>
      <trkpt lat="43.92416" lon="5.11196">
        <ele>150.58</ele>
        <time>2021-02-15T11:01:20Z</time>
      </trkpt>
      <trkpt lat="43.9242" lon="5.11174">
        <ele>150.58</ele>
        <time>2021-02-15T11:01:34Z</time>
      </trkpt>
      <trkpt lat="43.92429" lon="5.11152">
        <ele>151.54</ele>
        <time>2021-02-15T11:01:49Z</time>
      </trkpt>
      <trkpt lat="43.92436" lon="5.11134">
        <ele>153.47</ele>
        <time>2021-02-15T11:02:01Z</time>
      </trkpt>
      <trkpt lat="43.92437" lon="5.1113">
        <ele>153.47</ele>
        <time>2021-02-15T11:02:04Z</time>
      </trkpt>
      <trkpt lat="43.92441" lon="5.11113">
        <ele>152.03</ele>
        <time>2021-02-15T11:02:16Z</time>
      </trkpt>
      <trkpt lat="43.92446" lon="5.11091">
        <ele>151.06</ele>
        <time>2021-02-15T11:02:31Z</time>
      </trkpt>
      <trkpt lat="43.92459" lon="5.11067">
        <ele>151.06</ele>
        <time>2021-02-15T11:02:48Z</time>
      </trkpt>
      <trkpt lat="43.92461" lon="5.11064">
        <ele>151.06</ele>
        <time>2021-02-15T11:02:50Z</time>
      </trkpt>
      <trkpt lat="43.92477" lon="5.11054">
        <ele>152.03</ele>
        <time>2021-02-15T11:03:05Z</time>
      </trkpt>
      <trkpt lat="43.92486" lon="5.11055">
        <ele>152.99</ele>
        <time>2021-02-15T11:03:19Z</time>
      </trkpt>
      <trkpt lat="43.92485" lon="5.11053">
        <ele>152.51</ele>
        <time>2021-02-15T11:03:39Z</time>
      </trkpt>
      <trkpt lat="43.92483" lon="5.11051">
        <ele>152.03</ele>
        <time>2021-02-15T11:04:09Z</time>
      </trkpt>
      <trkpt lat="43.92482" lon="5.11052">
        <ele>152.03</ele>
        <time>2021-02-15T11:04:37Z</time>
      </trkpt>
      <trkpt lat="43.92484" lon="5.11053">
        <ele>151.54</ele>
        <time>2021-02-15T11:05:11Z</time>
      </trkpt>
      <trkpt lat="43.92485" lon="5.11054">
        <ele>152.99</ele>
        <time>2021-02-15T11:05:32Z</time>
      </trkpt>
      <trkpt lat="43.92496" lon="5.11057">
        <ele>153.47</ele>
        <time>2021-02-15T11:05:46Z</time>
      </trkpt>
      <trkpt lat="43.92496" lon="5.11057">
        <ele>153.95</ele>
        <time>2021-02-15T11:05:59Z</time>
      </trkpt>
      <trkpt lat="43.92499" lon="5.11055">
        <ele>153.95</ele>
        <time>2021-02-15T11:06:20Z</time>
      </trkpt>
      <trkpt lat="43.92498" lon="5.11055">
        <ele>152.99</ele>
        <time>2021-02-15T11:06:47Z</time>
      </trkpt>
      <trkpt lat="43.92498" lon="5.11055">
        <ele>152.51</ele>
        <time>2021-02-15T11:07:10Z</time>
      </trkpt>
      <trkpt lat="43.92499" lon="5.11055">
        <ele>152.51</ele>
        <time>2021-02-15T11:07:39Z</time>
      </trkpt>
      <trkpt lat="43.92499" lon="5.11055">
        <ele>152.51</ele>
        <time>2021-02-15T11:08:11Z</time>
      </trkpt>
      <trkpt lat="43.92498" lon="5.11056">
        <ele>152.51</ele>
        <time>2021-02-15T11:08:45Z</time>
      </trkpt>
      <trkpt lat="43.92497" lon="5.11058">
        <ele>153.47</ele>
        <time>2021-02-15T11:09:17Z</time>
      </trkpt>
      <trkpt lat="43.92496" lon="5.11059">
        <ele>153.95</ele>
        <time>2021-02-15T11:09:43Z</time>
      </trkpt>
      <trkpt lat="43.92498" lon="5.11056">
        <ele>153.95</ele>
        <time>2021-02-15T11:10:00Z</time>
      </trkpt>
      <trkpt lat="43.92498" lon="5.11054">
        <ele>153.95</ele>
        <time>2021-02-15T11:10:20Z</time>
      </trkpt>
      <trkpt lat="43.92497" lon="5.11058">
        <ele>153.95</ele>
        <time>2021-02-15T11:10:46Z</time>
      </trkpt>
      <trkpt lat="43.92499" lon="5.11058">
        <ele>153.95</ele>
        <time>2021-02-15T11:11:14Z</time>
      </trkpt>
      <trkpt lat="43.92498" lon="5.11056">
        <ele>154.43</ele>
        <time>2021-02-15T11:11:39Z</time>
      </trkpt>
      <trkpt lat="43.92499" lon="5.11058">
        <ele>154.43</ele>
        <time>2021-02-15T11:12:09Z</time>
      </trkpt>
      <trkpt lat="43.92498" lon="5.11058">
        <ele>154.43</ele>
        <time>2021-02-15T11:12:40Z</time>
      </trkpt>
      <trkpt lat="43.92498" lon="5.11059">
        <ele>154.43</ele>
        <time>2021-02-15T11:13:07Z</time>
      </trkpt>
      <trkpt lat="43.92497" lon="5.11056">
        <ele>154.43</ele>
        <time>2021-02-15T11:13:31Z</time>
      </trkpt>
      <trkpt lat="43.92497" lon="5.11058">
        <ele>154.43</ele>
        <time>2021-02-15T11:13:54Z</time>
      </trkpt>
      <trkpt lat="43.92497" lon="5.11056">
        <ele>154.43</ele>
        <time>2021-02-15T11:14:16Z</time>
      </trkpt>
      <trkpt lat="43.92498" lon="5.11055">
        <ele>154.43</ele>
        <time>2021-02-15T11:14:40Z</time>
      </trkpt>
      <trkpt lat="43.92498" lon="5.11055">
        <ele>154.43</ele>
        <time>2021-02-15T11:15:00Z</time>
      </trkpt>
      <trkpt lat="43.925" lon="5.11052">
        <ele>154.43</ele>
        <time>2021-02-15T11:15:24Z</time>
      </trkpt>
      <trkpt lat="43.92501" lon="5.11052">
        <ele>153.95</ele>
        <time>2021-02-15T11:15:51Z</time>
      </trkpt>
      <trkpt lat="43.92497" lon="5.11054">
        <ele>153.95</ele>
        <time>2021-02-15T11:16:18Z</time>
      </trkpt>
      <trkpt lat="43.92497" lon="5.11054">
        <ele>154.43</ele>
        <time>2021-02-15T11:16:49Z</time>
      </trkpt>
      <trkpt lat="43.92496" lon="5.11055">
        <ele>154.43</ele>
        <time>2021-02-15T11:17:17Z</time>
      </trkpt>
      <trkpt lat="43.92498" lon="5.11056">
        <ele>154.43</ele>
        <time>2021-02-15T11:17:41Z</time>
      </trkpt>
      <trkpt lat="43.92499" lon="5.11054">
        <ele>154.43</ele>
        <time>2021-02-15T11:18:09Z</time>
      </trkpt>
      <trkpt lat="43.92499" lon="5.11053">
        <ele>154.43</ele>
        <time>2021-02-15T11:18:32Z</time>
      </trkpt>
      <trkpt lat="43.92499" lon="5.11056">
        <ele>154.91</ele>
        <time>2021-02-15T11:19:03Z</time>
      </trkpt>
      <trkpt lat="43.92496" lon="5.11057">
        <ele>154.91</ele>
        <time>2021-02-15T11:19:35Z</time>
      </trkpt>
      <trkpt lat="43.92493" lon="5.1106">
        <ele>154.91</ele>
        <time>2021-02-15T11:20:02Z</time>
      </trkpt>
      <trkpt lat="43.92497" lon="5.11058">
        <ele>154.91</ele>
        <time>2021-02-15T11:20:31Z</time>
      </trkpt>
      <trkpt lat="43.92497" lon="5.11057">
        <ele>154.91</ele>
        <time>2021-02-15T11:21:05Z</time>
      </trkpt>
      <trkpt lat="43.92499" lon="5.11058">
        <ele>154.91</ele>
        <time>2021-02-15T11:21:34Z</time>
      </trkpt>
      <trkpt lat="43.92499" lon="5.11053">
        <ele>155.39</ele>
        <time>2021-02-15T11:22:19Z</time>
      </trkpt>
      <trkpt lat="43.92498" lon="5.11055">
        <ele>155.39</ele>
        <time>2021-02-15T11:22:43Z</time>
      </trkpt>
      <trkpt lat="43.92497" lon="5.11058">
        <ele>155.39</ele>
        <time>2021-02-15T11:23:08Z</time>
      </trkpt>
      <trkpt lat="43.92498" lon="5.11057">
        <ele>154.43</ele>
        <time>2021-02-15T11:23:37Z</time>
      </trkpt>
      <trkpt lat="43.92497" lon="5.11057">
        <ele>154.43</ele>
        <time>2021-02-15T11:24:09Z</time>
      </trkpt>
      <trkpt lat="43.92498" lon="5.1106">
        <ele>154.43</ele>
        <time>2021-02-15T11:24:41Z</time>
      </trkpt>
      <trkpt lat="43.92497" lon="5.11058">
        <ele>154.43</ele>
        <time>2021-02-15T11:25:07Z</time>
      </trkpt>
      <trkpt lat="43.92497" lon="5.11058">
        <ele>154.43</ele>
        <time>2021-02-15T11:25:33Z</time>
      </trkpt>
      <trkpt lat="43.92496" lon="5.11056">
        <ele>154.43</ele>
        <time>2021-02-15T11:25:55Z</time>
      </trkpt>
      <trkpt lat="43.92496" lon="5.11057">
        <ele>154.43</ele>
        <time>2021-02-15T11:26:19Z</time>
      </trkpt>
      <trkpt lat="43.92497" lon="5.11058">
        <ele>155.39</ele>
        <time>2021-02-15T11:26:46Z</time>
      </trkpt>
      <trkpt lat="43.92496" lon="5.11056">
        <ele>155.39</ele>
        <time>2021-02-15T11:27:12Z</time>
      </trkpt>
      <trkpt lat="43.92498" lon="5.11055">
        <ele>155.39</ele>
        <time>2021-02-15T11:27:34Z</time>
      </trkpt>
      <trkpt lat="43.92499" lon="5.11055">
        <ele>155.87</ele>
        <time>2021-02-15T11:28:03Z</time>
      </trkpt>
      <trkpt lat="43.92499" lon="5.11056">
        <ele>155.87</ele>
        <time>2021-02-15T11:28:24Z</time>
      </trkpt>
      <trkpt lat="43.92497" lon="5.11057">
        <ele>155.87</ele>
        <time>2021-02-15T11:28:47Z</time>
      </trkpt>
      <trkpt lat="43.92498" lon="5.11056">
        <ele>155.87</ele>
        <time>2021-02-15T11:29:11Z</time>
      </trkpt>
      <trkpt lat="43.92498" lon="5.11055">
        <ele>155.87</ele>
        <time>2021-02-15T11:29:39Z</time>
      </trkpt>
      <trkpt lat="43.92499" lon="5.11055">
        <ele>155.87</ele>
        <time>2021-02-15T11:30:05Z</time>
      </trkpt>
      <trkpt lat="43.925" lon="5.11055">
        <ele>155.87</ele>
        <time>2021-02-15T11:30:27Z</time>
      </trkpt>
      <trkpt lat="43.92501" lon="5.11056">
        <ele>155.87</ele>
        <time>2021-02-15T11:30:49Z</time>
      </trkpt>
      <trkpt lat="43.92498" lon="5.11056">
        <ele>155.87</ele>
        <time>2021-02-15T11:31:15Z</time>
      </trkpt>
      <trkpt lat="43.92496" lon="5.11059">
        <ele>155.87</ele>
        <time>2021-02-15T11:31:40Z</time>
      </trkpt>
      <trkpt lat="43.92497" lon="5.11062">
        <ele>155.87</ele>
        <time>2021-02-15T11:32:03Z</time>
      </trkpt>
      <trkpt lat="43.92498" lon="5.1106">
        <ele>155.87</ele>
        <time>2021-02-15T11:32:25Z</time>
      </trkpt>
      <trkpt lat="43.92496" lon="5.11058">
        <ele>156.35</ele>
        <time>2021-02-15T11:32:53Z</time>
      </trkpt>
      <trkpt lat="43.92497" lon="5.11058">
        <ele>156.35</ele>
        <time>2021-02-15T11:33:13Z</time>
      </trkpt>
      <trkpt lat="43.92497" lon="5.11058">
        <ele>156.35</ele>
        <time>2021-02-15T11:33:37Z</time>
      </trkpt>
      <trkpt lat="43.92498" lon="5.11059">
        <ele>156.35</ele>
        <time>2021-02-15T11:34:06Z</time>
      </trkpt>
      <trkpt lat="43.92499" lon="5.11059">
        <ele>156.35</ele>
        <time>2021-02-15T11:34:35Z</time>
      </trkpt>
      <trkpt lat="43.925" lon="5.11057">
        <ele>156.83</ele>
        <time>2021-02-15T11:35:04Z</time>
      </trkpt>
      <trkpt lat="43.92496" lon="5.11059">
        <ele>156.83</ele>
        <time>2021-02-15T11:35:34Z</time>
      </trkpt>
      <trkpt lat="43.92497" lon="5.11057">
        <ele>156.83</ele>
        <time>2021-02-15T11:36:01Z</time>
      </trkpt>
      <trkpt lat="43.92496" lon="5.1106">
        <ele>156.83</ele>
        <time>2021-02-15T11:36:25Z</time>
      </trkpt>
      <trkpt lat="43.92496" lon="5.1106">
        <ele>157.31</ele>
        <time>2021-02-15T11:36:47Z</time>
      </trkpt>
      <trkpt lat="43.92496" lon="5.1106">
        <ele>156.83</ele>
        <time>2021-02-15T11:37:25Z</time>
      </trkpt>
      <trkpt lat="43.92497" lon="5.11059">
        <ele>157.31</ele>
        <time>2021-02-15T11:37:53Z</time>
      </trkpt>
      <trkpt lat="43.92498" lon="5.1106">
        <ele>157.31</ele>
        <time>2021-02-15T11:38:20Z</time>
      </trkpt>
      <trkpt lat="43.92496" lon="5.11059">
        <ele>157.31</ele>
        <time>2021-02-15T11:38:40Z</time>
      </trkpt>
      <trkpt lat="43.92495" lon="5.11061">
        <ele>157.31</ele>
        <time>2021-02-15T11:39:06Z</time>
      </trkpt>
      <trkpt lat="43.92495" lon="5.1106">
        <ele>157.31</ele>
        <time>2021-02-15T11:39:36Z</time>
      </trkpt>
      <trkpt lat="43.92497" lon="5.11059">
        <ele>157.31</ele>
        <time>2021-02-15T11:40:09Z</time>
      </trkpt>
      <trkpt lat="43.92497" lon="5.11059">
        <ele>158.27</ele>
        <time>2021-02-15T11:40:39Z</time>
      </trkpt>
      <trkpt lat="43.92497" lon="5.11059">
        <ele>158.27</ele>
        <time>2021-02-15T11:40:53Z</time>
      </trkpt>
      <trkpt lat="43.92493" lon="5.11059">
        <ele>157.79</ele>
        <time>2021-02-15T11:41:08Z</time>
      </trkpt>
      <trkpt lat="43.92495" lon="5.11062">
        <ele>157.79</ele>
        <time>2021-02-15T11:41:29Z</time>
      </trkpt>
      <trkpt lat="43.92496" lon="5.11059">
        <ele>157.79</ele>
        <time>2021-02-15T11:41:52Z</time>
      </trkpt>
      <trkpt lat="43.92495" lon="5.11059">
        <ele>157.79</ele>
        <time>2021-02-15T11:42:14Z</time>
      </trkpt>
      <trkpt lat="43.92495" lon="5.11058">
        <ele>157.79</ele>
        <time>2021-02-15T11:42:46Z</time>
      </trkpt>
      <trkpt lat="43.92496" lon="5.11058">
        <ele>157.31</ele>
        <time>2021-02-15T11:43:09Z</time>
      </trkpt>
      <trkpt lat="43.92495" lon="5.11058">
        <ele>157.31</ele>
        <time>2021-02-15T11:43:46Z</time>
      </trkpt>
      <trkpt lat="43.92495" lon="5.11058">
        <ele>157.31</ele>
        <time>2021-02-15T11:44:10Z</time>
      </trkpt>
      <trkpt lat="43.92491" lon="5.11054">
        <ele>157.31</ele>
        <time>2021-02-15T11:44:25Z</time>
      </trkpt>
      <trkpt lat="43.92485" lon="5.11054">
        <ele>156.83</ele>
        <time>2021-02-15T11:44:31Z</time>
      </trkpt>
      <trkpt lat="43.92477" lon="5.11046">
        <ele>156.83</ele>
        <time>2021-02-15T11:44:45Z</time>
      </trkpt>
      <trkpt lat="43.92476" lon="5.11044">
        <ele>155.39</ele>
        <time>2021-02-15T11:44:48Z</time>
      </trkpt>
      <trkpt lat="43.92475" lon="5.11042">
        <ele>155.39</ele>
        <time>2021-02-15T11:44:51Z</time>
      </trkpt>
      <trkpt lat="43.9247" lon="5.11033">
        <ele>153.95</ele>
        <time>2021-02-15T11:45:06Z</time>
      </trkpt>
      <trkpt lat="43.92468" lon="5.11028">
        <ele>153.95</ele>
        <time>2021-02-15T11:45:19Z</time>
      </trkpt>
      <trkpt lat="43.92466" lon="5.11017">
        <ele>152.51</ele>
        <time>2021-02-15T11:45:31Z</time>
      </trkpt>
      <trkpt lat="43.92464" lon="5.11007">
        <ele>153.47</ele>
        <time>2021-02-15T11:45:39Z</time>
      </trkpt>
      <trkpt lat="43.92465" lon="5.10987">
        <ele>151.06</ele>
        <time>2021-02-15T11:45:56Z</time>
      </trkpt>
      <trkpt lat="43.92468" lon="5.10965">
        <ele>149.62</ele>
        <time>2021-02-15T11:46:14Z</time>
      </trkpt>
      <trkpt lat="43.92472" lon="5.10944">
        <ele>148.18</ele>
        <time>2021-02-15T11:46:31Z</time>
      </trkpt>
      <trkpt lat="43.92474" lon="5.1092">
        <ele>147.7</ele>
        <time>2021-02-15T11:46:49Z</time>
      </trkpt>
      <trkpt lat="43.92472" lon="5.10901">
        <ele>146.74</ele>
        <time>2021-02-15T11:47:04Z</time>
      </trkpt>
      <trkpt lat="43.92468" lon="5.10884">
        <ele>145.78</ele>
        <time>2021-02-15T11:47:18Z</time>
      </trkpt>
      <trkpt lat="43.92465" lon="5.10862">
        <ele>145.78</ele>
        <time>2021-02-15T11:47:34Z</time>
      </trkpt>
      <trkpt lat="43.92465" lon="5.10859">
        <ele>145.78</ele>
        <time>2021-02-15T11:47:36Z</time>
      </trkpt>
      <trkpt lat="43.92463" lon="5.10846">
        <ele>145.3</ele>
        <time>2021-02-15T11:47:46Z</time>
      </trkpt>
      <trkpt lat="43.92465" lon="5.10816">
        <ele>145.3</ele>
        <time>2021-02-15T11:48:06Z</time>
      </trkpt>
      <trkpt lat="43.9247" lon="5.10789">
        <ele>145.3</ele>
        <time>2021-02-15T11:48:25Z</time>
      </trkpt>
      <trkpt lat="43.92479" lon="5.10768">
        <ele>144.82</ele>
        <time>2021-02-15T11:48:42Z</time>
      </trkpt>
      <trkpt lat="43.9249" lon="5.10749">
        <ele>144.82</ele>
        <time>2021-02-15T11:48:57Z</time>
      </trkpt>
      <trkpt lat="43.92498" lon="5.1073">
        <ele>144.82</ele>
        <time>2021-02-15T11:49:13Z</time>
      </trkpt>
      <trkpt lat="43.9251" lon="5.10711">
        <ele>144.34</ele>
        <time>2021-02-15T11:49:30Z</time>
      </trkpt>
      <trkpt lat="43.9252" lon="5.10692">
        <ele>144.34</ele>
        <time>2021-02-15T11:49:47Z</time>
      </trkpt>
      <trkpt lat="43.92529" lon="5.10672">
        <ele>143.85</ele>
        <time>2021-02-15T11:50:04Z</time>
      </trkpt>
      <trkpt lat="43.92536" lon="5.10658">
        <ele>143.37</ele>
        <time>2021-02-15T11:50:18Z</time>
      </trkpt>
      <trkpt lat="43.92537" lon="5.10656">
        <ele>142.89</ele>
        <time>2021-02-15T11:50:31Z</time>
      </trkpt>
      <trkpt lat="43.92537" lon="5.10659">
        <ele>142.89</ele>
        <time>2021-02-15T11:50:50Z</time>
      </trkpt>
      <trkpt lat="43.92538" lon="5.10658">
        <ele>142.89</ele>
        <time>2021-02-15T11:51:07Z</time>
      </trkpt>
      <trkpt lat="43.9254" lon="5.10651">
        <ele>142.89</ele>
        <time>2021-02-15T11:51:19Z</time>
      </trkpt>
      <trkpt lat="43.92541" lon="5.10651">
        <ele>142.89</ele>
        <time>2021-02-15T11:51:20Z</time>
      </trkpt>
      <trkpt lat="43.92555" lon="5.10644">
        <ele>142.41</ele>
        <time>2021-02-15T11:51:34Z</time>
      </trkpt>
      <trkpt lat="43.9256" lon="5.10634">
        <ele>141.93</ele>
        <time>2021-02-15T11:51:42Z</time>
      </trkpt>
      <trkpt lat="43.92553" lon="5.10618">
        <ele>138.57</ele>
        <time>2021-02-15T11:51:58Z</time>
      </trkpt>
      <trkpt lat="43.92543" lon="5.10597">
        <ele>135.2</ele>
        <time>2021-02-15T11:52:16Z</time>
      </trkpt>
      <trkpt lat="43.92536" lon="5.10576">
        <ele>132.32</ele>
        <time>2021-02-15T11:52:33Z</time>
      </trkpt>
      <trkpt lat="43.9253" lon="5.10553">
        <ele>129.92</ele>
        <time>2021-02-15T11:52:50Z</time>
      </trkpt>
      <trkpt lat="43.92525" lon="5.10529">
        <ele>127.51</ele>
        <time>2021-02-15T11:53:06Z</time>
      </trkpt>
      <trkpt lat="43.92532" lon="5.10529">
        <ele>127.03</ele>
        <time>2021-02-15T11:53:20Z</time>
      </trkpt>
      <trkpt lat="43.92536" lon="5.10533">
        <ele>127.03</ele>
        <time>2021-02-15T11:53:27Z</time>
      </trkpt>
      <trkpt lat="43.9255" lon="5.10545">
        <ele>126.55</ele>
        <time>2021-02-15T11:53:45Z</time>
      </trkpt>
      <trkpt lat="43.92553" lon="5.10553">
        <ele>127.99</ele>
        <time>2021-02-15T11:53:53Z</time>
      </trkpt>
      <trkpt lat="43.92557" lon="5.10558">
        <ele>128.95</ele>
        <time>2021-02-15T11:54:00Z</time>
      </trkpt>
      <trkpt lat="43.92565" lon="5.10565">
        <ele>130.88</ele>
        <time>2021-02-15T11:54:12Z</time>
      </trkpt>
      <trkpt lat="43.92575" lon="5.1058">
        <ele>133.76</ele>
        <time>2021-02-15T11:54:31Z</time>
      </trkpt>
      <trkpt lat="43.92587" lon="5.10591">
        <ele>135.68</ele>
        <time>2021-02-15T11:54:48Z</time>
      </trkpt>
      <trkpt lat="43.92597" lon="5.10599">
        <ele>138.09</ele>
        <time>2021-02-15T11:55:02Z</time>
      </trkpt>
      <trkpt lat="43.92611" lon="5.1061">
        <ele>141.45</ele>
        <time>2021-02-15T11:55:21Z</time>
      </trkpt>
      <trkpt lat="43.9262" lon="5.10619">
        <ele>143.85</ele>
        <time>2021-02-15T11:55:36Z</time>
      </trkpt>
      <trkpt lat="43.92634" lon="5.10628">
        <ele>146.74</ele>
        <time>2021-02-15T11:55:51Z</time>
      </trkpt>
      <trkpt lat="43.92635" lon="5.10628">
        <ele>146.74</ele>
        <time>2021-02-15T11:55:52Z</time>
      </trkpt>
      <trkpt lat="43.92651" lon="5.1063">
        <ele>148.66</ele>
        <time>2021-02-15T11:56:07Z</time>
      </trkpt>
      <trkpt lat="43.92662" lon="5.10632">
        <ele>150.1</ele>
        <time>2021-02-15T11:56:22Z</time>
      </trkpt>
      <trkpt lat="43.92674" lon="5.10633">
        <ele>151.06</ele>
        <time>2021-02-15T11:56:37Z</time>
      </trkpt>
      <trkpt lat="43.92687" lon="5.10635">
        <ele>152.99</ele>
        <time>2021-02-15T11:56:52Z</time>
      </trkpt>
      <trkpt lat="43.92695" lon="5.10636">
        <ele>153.95</ele>
        <time>2021-02-15T11:57:02Z</time>
      </trkpt>
      <trkpt lat="43.9271" lon="5.1064">
        <ele>156.35</ele>
        <time>2021-02-15T11:57:20Z</time>
      </trkpt>
      <trkpt lat="43.92712" lon="5.10641">
        <ele>155.39</ele>
        <time>2021-02-15T11:57:33Z</time>
      </trkpt>
      <trkpt lat="43.92715" lon="5.10638">
        <ele>156.35</ele>
        <time>2021-02-15T11:58:05Z</time>
      </trkpt>
      <trkpt lat="43.92716" lon="5.10637">
        <ele>156.35</ele>
        <time>2021-02-15T11:58:23Z</time>
      </trkpt>
      <trkpt lat="43.92718" lon="5.10639">
        <ele>156.83</ele>
        <time>2021-02-15T11:58:47Z</time>
      </trkpt>
      <trkpt lat="43.92722" lon="5.10641">
        <ele>157.79</ele>
        <time>2021-02-15T11:58:51Z</time>
      </trkpt>
      <trkpt lat="43.92723" lon="5.10642">
        <ele>157.79</ele>
        <time>2021-02-15T11:58:52Z</time>
      </trkpt>
      <trkpt lat="43.92738" lon="5.10653">
        <ele>160.68</ele>
        <time>2021-02-15T11:59:06Z</time>
      </trkpt>
      <trkpt lat="43.9275" lon="5.10668">
        <ele>163.08</ele>
        <time>2021-02-15T11:59:18Z</time>
      </trkpt>
      <trkpt lat="43.92768" lon="5.10691">
        <ele>166.93</ele>
        <time>2021-02-15T11:59:35Z</time>
      </trkpt>
      <trkpt lat="43.92778" lon="5.10701">
        <ele>169.33</ele>
        <time>2021-02-15T11:59:48Z</time>
      </trkpt>
      <trkpt lat="43.92788" lon="5.10711">
        <ele>170.29</ele>
        <time>2021-02-15T12:00:00Z</time>
      </trkpt>
      <trkpt lat="43.92808" lon="5.10714">
        <ele>173.17</ele>
        <time>2021-02-15T12:00:18Z</time>
      </trkpt>
      <trkpt lat="43.92816" lon="5.10717">
        <ele>174.62</ele>
        <time>2021-02-15T12:00:26Z</time>
      </trkpt>
      <trkpt lat="43.92828" lon="5.10718">
        <ele>175.1</ele>
        <time>2021-02-15T12:00:42Z</time>
      </trkpt>
      <trkpt lat="43.92828" lon="5.10719">
        <ele>175.1</ele>
        <time>2021-02-15T12:00:43Z</time>
      </trkpt>
      <trkpt lat="43.92831" lon="5.1072">
        <ele>176.06</ele>
        <time>2021-02-15T12:00:46Z</time>
      </trkpt>
      <trkpt lat="43.92844" lon="5.10725">
        <ele>177.02</ele>
        <time>2021-02-15T12:01:01Z</time>
      </trkpt>
      <trkpt lat="43.92854" lon="5.10728">
        <ele>177.98</ele>
        <time>2021-02-15T12:01:15Z</time>
      </trkpt>
      <trkpt lat="43.9287" lon="5.10737">
        <ele>179.42</ele>
        <time>2021-02-15T12:01:32Z</time>
      </trkpt>
      <trkpt lat="43.92884" lon="5.10744">
        <ele>180.38</ele>
        <time>2021-02-15T12:01:48Z</time>
      </trkpt>
      <trkpt lat="43.92895" lon="5.10748">
        <ele>181.35</ele>
        <time>2021-02-15T12:02:00Z</time>
      </trkpt>
      <trkpt lat="43.92905" lon="5.10753">
        <ele>182.79</ele>
        <time>2021-02-15T12:02:14Z</time>
      </trkpt>
      <trkpt lat="43.92919" lon="5.10757">
        <ele>184.23</ele>
        <time>2021-02-15T12:02:27Z</time>
      </trkpt>
      <trkpt lat="43.92924" lon="5.10758">
        <ele>186.63</ele>
        <time>2021-02-15T12:02:32Z</time>
      </trkpt>
      <trkpt lat="43.92941" lon="5.10762">
        <ele>186.63</ele>
        <time>2021-02-15T12:02:48Z</time>
      </trkpt>
      <trkpt lat="43.92943" lon="5.10763">
        <ele>187.11</ele>
        <time>2021-02-15T12:02:51Z</time>
      </trkpt>
      <trkpt lat="43.92946" lon="5.10764">
        <ele>187.11</ele>
        <time>2021-02-15T12:02:54Z</time>
      </trkpt>
      <trkpt lat="43.92952" lon="5.10765">
        <ele>188.08</ele>
        <time>2021-02-15T12:03:01Z</time>
      </trkpt>
      <trkpt lat="43.92955" lon="5.10765">
        <ele>188.08</ele>
        <time>2021-02-15T12:03:04Z</time>
      </trkpt>
      <trkpt lat="43.92968" lon="5.10767">
        <ele>188.56</ele>
        <time>2021-02-15T12:03:18Z</time>
      </trkpt>
      <trkpt lat="43.92982" lon="5.10771">
        <ele>190</ele>
        <time>2021-02-15T12:03:33Z</time>
      </trkpt>
      <trkpt lat="43.92993" lon="5.10776">
        <ele>191.44</ele>
        <time>2021-02-15T12:03:49Z</time>
      </trkpt>
      <trkpt lat="43.93" lon="5.10779">
        <ele>192.4</ele>
        <time>2021-02-15T12:04:00Z</time>
      </trkpt>
      <trkpt lat="43.93012" lon="5.10781">
        <ele>194.32</ele>
        <time>2021-02-15T12:04:15Z</time>
      </trkpt>
      <trkpt lat="43.93026" lon="5.10785">
        <ele>196.73</ele>
        <time>2021-02-15T12:04:30Z</time>
      </trkpt>
      <trkpt lat="43.93037" lon="5.1079">
        <ele>196.73</ele>
        <time>2021-02-15T12:04:44Z</time>
      </trkpt>
      <trkpt lat="43.93048" lon="5.10796">
        <ele>198.17</ele>
        <time>2021-02-15T12:04:58Z</time>
      </trkpt>
      <trkpt lat="43.93061" lon="5.10802">
        <ele>199.13</ele>
        <time>2021-02-15T12:05:12Z</time>
      </trkpt>
      <trkpt lat="43.93073" lon="5.10806">
        <ele>200.57</ele>
        <time>2021-02-15T12:05:26Z</time>
      </trkpt>
      <trkpt lat="43.93083" lon="5.10811">
        <ele>202.01</ele>
        <time>2021-02-15T12:05:39Z</time>
      </trkpt>
      <trkpt lat="43.9309" lon="5.10814">
        <ele>202.49</ele>
        <time>2021-02-15T12:05:46Z</time>
      </trkpt>
      <trkpt lat="43.93103" lon="5.10822">
        <ele>204.9</ele>
        <time>2021-02-15T12:06:02Z</time>
      </trkpt>
      <trkpt lat="43.93111" lon="5.10831">
        <ele>206.34</ele>
        <time>2021-02-15T12:06:16Z</time>
      </trkpt>
      <trkpt lat="43.9312" lon="5.10835">
        <ele>207.3</ele>
        <time>2021-02-15T12:06:30Z</time>
      </trkpt>
      <trkpt lat="43.9313" lon="5.10843">
        <ele>208.74</ele>
        <time>2021-02-15T12:06:46Z</time>
      </trkpt>
      <trkpt lat="43.93142" lon="5.10847">
        <ele>210.19</ele>
        <time>2021-02-15T12:07:03Z</time>
      </trkpt>
      <trkpt lat="43.93144" lon="5.10846">
        <ele>210.19</ele>
        <time>2021-02-15T12:07:08Z</time>
      </trkpt>
      <trkpt lat="43.93143" lon="5.10845">
        <ele>210.67</ele>
        <time>2021-02-15T12:07:24Z</time>
      </trkpt>
      <trkpt lat="43.93146" lon="5.10844">
        <ele>210.67</ele>
        <time>2021-02-15T12:07:40Z</time>
      </trkpt>
      <trkpt lat="43.93145" lon="5.10843">
        <ele>210.67</ele>
        <time>2021-02-15T12:08:14Z</time>
      </trkpt>
      <trkpt lat="43.93143" lon="5.10842">
        <ele>209.22</ele>
        <time>2021-02-15T12:08:47Z</time>
      </trkpt>
      <trkpt lat="43.93144" lon="5.10844">
        <ele>209.22</ele>
        <time>2021-02-15T12:09:22Z</time>
      </trkpt>
      <trkpt lat="43.93144" lon="5.10841">
        <ele>208.74</ele>
        <time>2021-02-15T12:09:59Z</time>
      </trkpt>
      <trkpt lat="43.93144" lon="5.10843">
        <ele>210.67</ele>
        <time>2021-02-15T12:10:25Z</time>
      </trkpt>
      <trkpt lat="43.93149" lon="5.10845">
        <ele>211.15</ele>
        <time>2021-02-15T12:10:34Z</time>
      </trkpt>
      <trkpt lat="43.93161" lon="5.10847">
        <ele>212.59</ele>
        <time>2021-02-15T12:10:49Z</time>
      </trkpt>
      <trkpt lat="43.93174" lon="5.10849">
        <ele>214.51</ele>
        <time>2021-02-15T12:11:04Z</time>
      </trkpt>
      <trkpt lat="43.93185" lon="5.1085">
        <ele>215.47</ele>
        <time>2021-02-15T12:11:16Z</time>
      </trkpt>
      <trkpt lat="43.93197" lon="5.10846">
        <ele>216.91</ele>
        <time>2021-02-15T12:11:29Z</time>
      </trkpt>
      <trkpt lat="43.93213" lon="5.10845">
        <ele>219.32</ele>
        <time>2021-02-15T12:11:44Z</time>
      </trkpt>
      <trkpt lat="43.93228" lon="5.10847">
        <ele>220.76</ele>
        <time>2021-02-15T12:12:00Z</time>
      </trkpt>
      <trkpt lat="43.93241" lon="5.10851">
        <ele>221.72</ele>
        <time>2021-02-15T12:12:14Z</time>
      </trkpt>
      <trkpt lat="43.93256" lon="5.10853">
        <ele>222.68</ele>
        <time>2021-02-15T12:12:31Z</time>
      </trkpt>
      <trkpt lat="43.93269" lon="5.10856">
        <ele>224.12</ele>
        <time>2021-02-15T12:12:46Z</time>
      </trkpt>
      <trkpt lat="43.9328" lon="5.1086">
        <ele>225.09</ele>
        <time>2021-02-15T12:12:59Z</time>
      </trkpt>
      <trkpt lat="43.93289" lon="5.10866">
        <ele>226.05</ele>
        <time>2021-02-15T12:13:13Z</time>
      </trkpt>
      <trkpt lat="43.93297" lon="5.10869">
        <ele>226.53</ele>
        <time>2021-02-15T12:13:22Z</time>
      </trkpt>
      <trkpt lat="43.93307" lon="5.1087">
        <ele>227.01</ele>
        <time>2021-02-15T12:13:32Z</time>
      </trkpt>
      <trkpt lat="43.93323" lon="5.10872">
        <ele>227.49</ele>
        <time>2021-02-15T12:13:47Z</time>
      </trkpt>
      <trkpt lat="43.93336" lon="5.10877">
        <ele>229.41</ele>
        <time>2021-02-15T12:14:01Z</time>
      </trkpt>
      <trkpt lat="43.93341" lon="5.10879">
        <ele>230.37</ele>
        <time>2021-02-15T12:14:07Z</time>
      </trkpt>
      <trkpt lat="43.93351" lon="5.10885">
        <ele>230.85</ele>
        <time>2021-02-15T12:14:19Z</time>
      </trkpt>
      <trkpt lat="43.93353" lon="5.10891">
        <ele>231.81</ele>
        <time>2021-02-15T12:14:25Z</time>
      </trkpt>
      <trkpt lat="43.9337" lon="5.10898">
        <ele>234.22</ele>
        <time>2021-02-15T12:14:41Z</time>
      </trkpt>
      <trkpt lat="43.93383" lon="5.10907">
        <ele>235.66</ele>
        <time>2021-02-15T12:14:56Z</time>
      </trkpt>
      <trkpt lat="43.93395" lon="5.10916">
        <ele>237.58</ele>
        <time>2021-02-15T12:15:11Z</time>
      </trkpt>
      <trkpt lat="43.93408" lon="5.10927">
        <ele>239.02</ele>
        <time>2021-02-15T12:15:26Z</time>
      </trkpt>
      <trkpt lat="43.93419" lon="5.10938">
        <ele>241.43</ele>
        <time>2021-02-15T12:15:43Z</time>
      </trkpt>
      <trkpt lat="43.93433" lon="5.10946">
        <ele>242.87</ele>
        <time>2021-02-15T12:15:58Z</time>
      </trkpt>
      <trkpt lat="43.93441" lon="5.10952">
        <ele>243.83</ele>
        <time>2021-02-15T12:16:12Z</time>
      </trkpt>
      <trkpt lat="43.93442" lon="5.10954">
        <ele>243.83</ele>
        <time>2021-02-15T12:16:24Z</time>
      </trkpt>
      <trkpt lat="43.93441" lon="5.10955">
        <ele>243.35</ele>
        <time>2021-02-15T12:16:41Z</time>
      </trkpt>
      <trkpt lat="43.9344" lon="5.10955">
        <ele>243.35</ele>
        <time>2021-02-15T12:17:06Z</time>
      </trkpt>
      <trkpt lat="43.9344" lon="5.10956">
        <ele>243.83</ele>
        <time>2021-02-15T12:17:32Z</time>
      </trkpt>
      <trkpt lat="43.93441" lon="5.10961">
        <ele>243.83</ele>
        <time>2021-02-15T12:17:38Z</time>
      </trkpt>
      <trkpt lat="43.93443" lon="5.10964">
        <ele>243.83</ele>
        <time>2021-02-15T12:17:41Z</time>
      </trkpt>
      <trkpt lat="43.93445" lon="5.10981">
        <ele>244.31</ele>
        <time>2021-02-15T12:17:55Z</time>
      </trkpt>
      <trkpt lat="43.93444" lon="5.10983">
        <ele>244.31</ele>
        <time>2021-02-15T12:17:57Z</time>
      </trkpt>
      <trkpt lat="43.9344" lon="5.11003">
        <ele>245.27</ele>
        <time>2021-02-15T12:18:12Z</time>
      </trkpt>
      <trkpt lat="43.93433" lon="5.11025">
        <ele>245.75</ele>
        <time>2021-02-15T12:18:29Z</time>
      </trkpt>
      <trkpt lat="43.93427" lon="5.11045">
        <ele>246.23</ele>
        <time>2021-02-15T12:18:44Z</time>
      </trkpt>
      <trkpt lat="43.9342" lon="5.11065">
        <ele>247.68</ele>
        <time>2021-02-15T12:19:00Z</time>
      </trkpt>
      <trkpt lat="43.93414" lon="5.11085">
        <ele>248.64</ele>
        <time>2021-02-15T12:19:14Z</time>
      </trkpt>
      <trkpt lat="43.93407" lon="5.11104">
        <ele>249.6</ele>
        <time>2021-02-15T12:19:30Z</time>
      </trkpt>
      <trkpt lat="43.93401" lon="5.1112">
        <ele>250.08</ele>
        <time>2021-02-15T12:19:44Z</time>
      </trkpt>
      <trkpt lat="43.93394" lon="5.11136">
        <ele>251.04</ele>
        <time>2021-02-15T12:19:59Z</time>
      </trkpt>
      <trkpt lat="43.93389" lon="5.1115">
        <ele>251.04</ele>
        <time>2021-02-15T12:20:10Z</time>
      </trkpt>
      <trkpt lat="43.93386" lon="5.1117">
        <ele>252.48</ele>
        <time>2021-02-15T12:20:26Z</time>
      </trkpt>
      <trkpt lat="43.93385" lon="5.11194">
        <ele>253.93</ele>
        <time>2021-02-15T12:20:42Z</time>
      </trkpt>
      <trkpt lat="43.93384" lon="5.11214">
        <ele>255.37</ele>
        <time>2021-02-15T12:20:57Z</time>
      </trkpt>
      <trkpt lat="43.93382" lon="5.11233">
        <ele>256.81</ele>
        <time>2021-02-15T12:21:11Z</time>
      </trkpt>
      <trkpt lat="43.93377" lon="5.11256">
        <ele>259.21</ele>
        <time>2021-02-15T12:21:29Z</time>
      </trkpt>
      <trkpt lat="43.93374" lon="5.11274">
        <ele>260.65</ele>
        <time>2021-02-15T12:21:43Z</time>
      </trkpt>
      <trkpt lat="43.93371" lon="5.1129">
        <ele>262.58</ele>
        <time>2021-02-15T12:21:59Z</time>
      </trkpt>
      <trkpt lat="43.93371" lon="5.11295">
        <ele>263.06</ele>
        <time>2021-02-15T12:22:26Z</time>
      </trkpt>
      <trkpt lat="43.93371" lon="5.11291">
        <ele>262.58</ele>
        <time>2021-02-15T12:23:11Z</time>
      </trkpt>
      <trkpt lat="43.93372" lon="5.11292">
        <ele>262.58</ele>
        <time>2021-02-15T12:23:44Z</time>
      </trkpt>
      <trkpt lat="43.93371" lon="5.11294">
        <ele>262.58</ele>
        <time>2021-02-15T12:24:18Z</time>
      </trkpt>
      <trkpt lat="43.93369" lon="5.11301">
        <ele>262.58</ele>
        <time>2021-02-15T12:24:35Z</time>
      </trkpt>
      <trkpt lat="43.93368" lon="5.11319">
        <ele>264.98</ele>
        <time>2021-02-15T12:24:52Z</time>
      </trkpt>
      <trkpt lat="43.93365" lon="5.11338">
        <ele>267.38</ele>
        <time>2021-02-15T12:25:08Z</time>
      </trkpt>
      <trkpt lat="43.93364" lon="5.11345">
        <ele>269.31</ele>
        <time>2021-02-15T12:25:16Z</time>
      </trkpt>
      <trkpt lat="43.93362" lon="5.11359">
        <ele>271.23</ele>
        <time>2021-02-15T12:25:28Z</time>
      </trkpt>
      <trkpt lat="43.93359" lon="5.11374">
        <ele>272.19</ele>
        <time>2021-02-15T12:25:41Z</time>
      </trkpt>
      <trkpt lat="43.93361" lon="5.11385">
        <ele>272.67</ele>
        <time>2021-02-15T12:25:49Z</time>
      </trkpt>
      <trkpt lat="43.93364" lon="5.11391">
        <ele>272.67</ele>
        <time>2021-02-15T12:25:54Z</time>
      </trkpt>
      <trkpt lat="43.93373" lon="5.11402">
        <ele>270.27</ele>
        <time>2021-02-15T12:26:09Z</time>
      </trkpt>
      <trkpt lat="43.93386" lon="5.11414">
        <ele>267.38</ele>
        <time>2021-02-15T12:26:26Z</time>
      </trkpt>
      <trkpt lat="43.93398" lon="5.11421">
        <ele>265.46</ele>
        <time>2021-02-15T12:26:40Z</time>
      </trkpt>
      <trkpt lat="43.93408" lon="5.11426">
        <ele>264.02</ele>
        <time>2021-02-15T12:26:55Z</time>
      </trkpt>
      <trkpt lat="43.9342" lon="5.11433">
        <ele>261.62</ele>
        <time>2021-02-15T12:27:11Z</time>
      </trkpt>
      <trkpt lat="43.93431" lon="5.11442">
        <ele>259.69</ele>
        <time>2021-02-15T12:27:25Z</time>
      </trkpt>
      <trkpt lat="43.93443" lon="5.11454">
        <ele>258.25</ele>
        <time>2021-02-15T12:27:40Z</time>
      </trkpt>
      <trkpt lat="43.93454" lon="5.11467">
        <ele>256.33</ele>
        <time>2021-02-15T12:27:56Z</time>
      </trkpt>
      <trkpt lat="43.93465" lon="5.11478">
        <ele>254.41</ele>
        <time>2021-02-15T12:28:12Z</time>
      </trkpt>
      <trkpt lat="43.93476" lon="5.11494">
        <ele>252</ele>
        <time>2021-02-15T12:28:29Z</time>
      </trkpt>
      <trkpt lat="43.93483" lon="5.11505">
        <ele>250.56</ele>
        <time>2021-02-15T12:28:43Z</time>
      </trkpt>
      <trkpt lat="43.9349" lon="5.11519">
        <ele>247.2</ele>
        <time>2021-02-15T12:28:59Z</time>
      </trkpt>
      <trkpt lat="43.93496" lon="5.11534">
        <ele>245.75</ele>
        <time>2021-02-15T12:29:12Z</time>
      </trkpt>
      <trkpt lat="43.93499" lon="5.11545">
        <ele>243.83</ele>
        <time>2021-02-15T12:29:26Z</time>
      </trkpt>
      <trkpt lat="43.93491" lon="5.1155">
        <ele>243.35</ele>
        <time>2021-02-15T12:29:38Z</time>
      </trkpt>
      <trkpt lat="43.93483" lon="5.11552">
        <ele>242.39</ele>
        <time>2021-02-15T12:29:49Z</time>
      </trkpt>
      <trkpt lat="43.93478" lon="5.11554">
        <ele>242.39</ele>
        <time>2021-02-15T12:30:04Z</time>
      </trkpt>
      <trkpt lat="43.93486" lon="5.1155">
        <ele>241.91</ele>
        <time>2021-02-15T12:30:40Z</time>
      </trkpt>
      <trkpt lat="43.93478" lon="5.11553">
        <ele>241.91</ele>
        <time>2021-02-15T12:31:11Z</time>
      </trkpt>
      <trkpt lat="43.93474" lon="5.11554">
        <ele>242.87</ele>
        <time>2021-02-15T12:31:29Z</time>
      </trkpt>
      <trkpt lat="43.93452" lon="5.11558">
        <ele>244.31</ele>
        <time>2021-02-15T12:31:45Z</time>
      </trkpt>
      <trkpt lat="43.9344" lon="5.11568">
        <ele>245.75</ele>
        <time>2021-02-15T12:31:59Z</time>
      </trkpt>
      <trkpt lat="43.93429" lon="5.11575">
        <ele>246.23</ele>
        <time>2021-02-15T12:32:14Z</time>
      </trkpt>
      <trkpt lat="43.93416" lon="5.11585">
        <ele>248.64</ele>
        <time>2021-02-15T12:32:31Z</time>
      </trkpt>
      <trkpt lat="43.93403" lon="5.11599">
        <ele>249.6</ele>
        <time>2021-02-15T12:32:44Z</time>
      </trkpt>
      <trkpt lat="43.93395" lon="5.11613">
        <ele>252</ele>
        <time>2021-02-15T12:32:57Z</time>
      </trkpt>
      <trkpt lat="43.93383" lon="5.11624">
        <ele>253.44</ele>
        <time>2021-02-15T12:33:13Z</time>
      </trkpt>
      <trkpt lat="43.93372" lon="5.11636">
        <ele>254.89</ele>
        <time>2021-02-15T12:33:29Z</time>
      </trkpt>
      <trkpt lat="43.93359" lon="5.11649">
        <ele>256.81</ele>
        <time>2021-02-15T12:33:46Z</time>
      </trkpt>
      <trkpt lat="43.93345" lon="5.11659">
        <ele>258.73</ele>
        <time>2021-02-15T12:34:02Z</time>
      </trkpt>
      <trkpt lat="43.93335" lon="5.11666">
        <ele>260.65</ele>
        <time>2021-02-15T12:34:18Z</time>
      </trkpt>
      <trkpt lat="43.93318" lon="5.1168">
        <ele>263.06</ele>
        <time>2021-02-15T12:34:33Z</time>
      </trkpt>
      <trkpt lat="43.93309" lon="5.11691">
        <ele>265.46</ele>
        <time>2021-02-15T12:34:49Z</time>
      </trkpt>
      <trkpt lat="43.93305" lon="5.11706">
        <ele>269.31</ele>
        <time>2021-02-15T12:35:04Z</time>
      </trkpt>
      <trkpt lat="43.93298" lon="5.11725">
        <ele>272.19</ele>
        <time>2021-02-15T12:35:18Z</time>
      </trkpt>
      <trkpt lat="43.93289" lon="5.11735">
        <ele>275.07</ele>
        <time>2021-02-15T12:35:32Z</time>
      </trkpt>
      <trkpt lat="43.93282" lon="5.11746">
        <ele>278.44</ele>
        <time>2021-02-15T12:35:47Z</time>
      </trkpt>
      <trkpt lat="43.93274" lon="5.11756">
        <ele>280.84</ele>
        <time>2021-02-15T12:36:01Z</time>
      </trkpt>
      <trkpt lat="43.93274" lon="5.11765">
        <ele>283.73</ele>
        <time>2021-02-15T12:36:14Z</time>
      </trkpt>
      <trkpt lat="43.93284" lon="5.11767">
        <ele>285.65</ele>
        <time>2021-02-15T12:36:31Z</time>
      </trkpt>
      <trkpt lat="43.93285" lon="5.11767">
        <ele>286.13</ele>
        <time>2021-02-15T12:36:46Z</time>
      </trkpt>
      <trkpt lat="43.93284" lon="5.11764">
        <ele>286.61</ele>
        <time>2021-02-15T12:37:14Z</time>
      </trkpt>
      <trkpt lat="43.93285" lon="5.11764">
        <ele>286.61</ele>
        <time>2021-02-15T12:37:54Z</time>
      </trkpt>
      <trkpt lat="43.93284" lon="5.11766">
        <ele>286.61</ele>
        <time>2021-02-15T12:38:28Z</time>
      </trkpt>
      <trkpt lat="43.93283" lon="5.11766">
        <ele>286.61</ele>
        <time>2021-02-15T12:38:58Z</time>
      </trkpt>
      <trkpt lat="43.93282" lon="5.11768">
        <ele>286.61</ele>
        <time>2021-02-15T12:39:25Z</time>
      </trkpt>
      <trkpt lat="43.93283" lon="5.11771">
        <ele>286.61</ele>
        <time>2021-02-15T12:39:49Z</time>
      </trkpt>
      <trkpt lat="43.93282" lon="5.11771">
        <ele>286.13</ele>
        <time>2021-02-15T12:40:24Z</time>
      </trkpt>
      <trkpt lat="43.9329" lon="5.11774">
        <ele>287.57</ele>
        <time>2021-02-15T12:40:38Z</time>
      </trkpt>
      <trkpt lat="43.93299" lon="5.11778">
        <ele>290.46</ele>
        <time>2021-02-15T12:40:51Z</time>
      </trkpt>
      <trkpt lat="43.93308" lon="5.11778">
        <ele>292.86</ele>
        <time>2021-02-15T12:41:01Z</time>
      </trkpt>
      <trkpt lat="43.93323" lon="5.11775">
        <ele>295.26</ele>
        <time>2021-02-15T12:41:17Z</time>
      </trkpt>
      <trkpt lat="43.93335" lon="5.11773">
        <ele>298.15</ele>
        <time>2021-02-15T12:41:31Z</time>
      </trkpt>
      <trkpt lat="43.93331" lon="5.11786">
        <ele>300.07</ele>
        <time>2021-02-15T12:41:45Z</time>
      </trkpt>
      <trkpt lat="43.93317" lon="5.118">
        <ele>301.51</ele>
        <time>2021-02-15T12:42:03Z</time>
      </trkpt>
      <trkpt lat="43.93306" lon="5.1181">
        <ele>302.95</ele>
        <time>2021-02-15T12:42:19Z</time>
      </trkpt>
      <trkpt lat="43.93298" lon="5.11819">
        <ele>304.39</ele>
        <time>2021-02-15T12:42:33Z</time>
      </trkpt>
      <trkpt lat="43.93295" lon="5.1183">
        <ele>306.8</ele>
        <time>2021-02-15T12:42:51Z</time>
      </trkpt>
      <trkpt lat="43.93286" lon="5.11832">
        <ele>305.84</ele>
        <time>2021-02-15T12:43:05Z</time>
      </trkpt>
      <trkpt lat="43.93285" lon="5.11831">
        <ele>305.84</ele>
        <time>2021-02-15T12:43:06Z</time>
      </trkpt>
      <trkpt lat="43.93274" lon="5.11823">
        <ele>302.95</ele>
        <time>2021-02-15T12:43:21Z</time>
      </trkpt>
      <trkpt lat="43.93263" lon="5.11819">
        <ele>301.99</ele>
        <time>2021-02-15T12:43:35Z</time>
      </trkpt>
      <trkpt lat="43.93264" lon="5.1182">
        <ele>301.99</ele>
        <time>2021-02-15T12:43:41Z</time>
      </trkpt>
      <trkpt lat="43.93268" lon="5.11822">
        <ele>301.99</ele>
        <time>2021-02-15T12:43:45Z</time>
      </trkpt>
      <trkpt lat="43.93272" lon="5.11822">
        <ele>301.99</ele>
        <time>2021-02-15T12:43:49Z</time>
      </trkpt>
      <trkpt lat="43.93274" lon="5.11824">
        <ele>302.95</ele>
        <time>2021-02-15T12:43:51Z</time>
      </trkpt>
      <trkpt lat="43.93282" lon="5.11831">
        <ele>304.39</ele>
        <time>2021-02-15T12:44:00Z</time>
      </trkpt>
      <trkpt lat="43.93292" lon="5.11832">
        <ele>306.32</ele>
        <time>2021-02-15T12:44:13Z</time>
      </trkpt>
      <trkpt lat="43.93295" lon="5.11846">
        <ele>306.8</ele>
        <time>2021-02-15T12:44:28Z</time>
      </trkpt>
      <trkpt lat="43.933" lon="5.11857">
        <ele>307.76</ele>
        <time>2021-02-15T12:44:40Z</time>
      </trkpt>
      <trkpt lat="43.93305" lon="5.11864">
        <ele>309.2</ele>
        <time>2021-02-15T12:44:48Z</time>
      </trkpt>
      <trkpt lat="43.93316" lon="5.11875">
        <ele>308.72</ele>
        <time>2021-02-15T12:45:03Z</time>
      </trkpt>
      <trkpt lat="43.93329" lon="5.11891">
        <ele>309.68</ele>
        <time>2021-02-15T12:45:18Z</time>
      </trkpt>
      <trkpt lat="43.93339" lon="5.11906">
        <ele>309.68</ele>
        <time>2021-02-15T12:45:33Z</time>
      </trkpt>
      <trkpt lat="43.93346" lon="5.11916">
        <ele>310.16</ele>
        <time>2021-02-15T12:45:44Z</time>
      </trkpt>
      <trkpt lat="43.93349" lon="5.11922">
        <ele>310.16</ele>
        <time>2021-02-15T12:45:50Z</time>
      </trkpt>
      <trkpt lat="43.93354" lon="5.11925">
        <ele>310.64</ele>
        <time>2021-02-15T12:45:55Z</time>
      </trkpt>
      <trkpt lat="43.93359" lon="5.11931">
        <ele>310.64</ele>
        <time>2021-02-15T12:46:00Z</time>
      </trkpt>
      <trkpt lat="43.93367" lon="5.11938">
        <ele>311.12</ele>
        <time>2021-02-15T12:46:10Z</time>
      </trkpt>
      <trkpt lat="43.93374" lon="5.11949">
        <ele>311.12</ele>
        <time>2021-02-15T12:46:22Z</time>
      </trkpt>
      <trkpt lat="43.93387" lon="5.1196">
        <ele>311.6</ele>
        <time>2021-02-15T12:46:36Z</time>
      </trkpt>
      <trkpt lat="43.93402" lon="5.1197">
        <ele>312.09</ele>
        <time>2021-02-15T12:46:51Z</time>
      </trkpt>
      <trkpt lat="43.93412" lon="5.1198">
        <ele>311.6</ele>
        <time>2021-02-15T12:47:04Z</time>
      </trkpt>
      <trkpt lat="43.93421" lon="5.11993">
        <ele>309.68</ele>
        <time>2021-02-15T12:47:18Z</time>
      </trkpt>
      <trkpt lat="43.93427" lon="5.12007">
        <ele>308.72</ele>
        <time>2021-02-15T12:47:33Z</time>
      </trkpt>
      <trkpt lat="43.93429" lon="5.1201">
        <ele>308.72</ele>
        <time>2021-02-15T12:47:50Z</time>
      </trkpt>
      <trkpt lat="43.93429" lon="5.12009">
        <ele>308.72</ele>
        <time>2021-02-15T12:48:29Z</time>
      </trkpt>
      <trkpt lat="43.93428" lon="5.12011">
        <ele>308.72</ele>
        <time>2021-02-15T12:49:02Z</time>
      </trkpt>
      <trkpt lat="43.93428" lon="5.1201">
        <ele>308.24</ele>
        <time>2021-02-15T12:49:33Z</time>
      </trkpt>
      <trkpt lat="43.93428" lon="5.1201">
        <ele>308.24</ele>
        <time>2021-02-15T12:49:59Z</time>
      </trkpt>
      <trkpt lat="43.93437" lon="5.12023">
        <ele>308.24</ele>
        <time>2021-02-15T12:50:12Z</time>
      </trkpt>
      <trkpt lat="43.93443" lon="5.12033">
        <ele>309.68</ele>
        <time>2021-02-15T12:50:20Z</time>
      </trkpt>
      <trkpt lat="43.93456" lon="5.12051">
        <ele>311.12</ele>
        <time>2021-02-15T12:50:37Z</time>
      </trkpt>
      <trkpt lat="43.93459" lon="5.12055">
        <ele>309.68</ele>
        <time>2021-02-15T12:50:40Z</time>
      </trkpt>
      <trkpt lat="43.93464" lon="5.12065">
        <ele>311.12</ele>
        <time>2021-02-15T12:50:47Z</time>
      </trkpt>
      <trkpt lat="43.93466" lon="5.12092">
        <ele>311.6</ele>
        <time>2021-02-15T12:51:04Z</time>
      </trkpt>
      <trkpt lat="43.93466" lon="5.12118">
        <ele>312.09</ele>
        <time>2021-02-15T12:51:20Z</time>
      </trkpt>
      <trkpt lat="43.93463" lon="5.12142">
        <ele>313.05</ele>
        <time>2021-02-15T12:51:36Z</time>
      </trkpt>
      <trkpt lat="43.93456" lon="5.12166">
        <ele>313.53</ele>
        <time>2021-02-15T12:51:52Z</time>
      </trkpt>
      <trkpt lat="43.93449" lon="5.12187">
        <ele>314.49</ele>
        <time>2021-02-15T12:52:07Z</time>
      </trkpt>
      <trkpt lat="43.93447" lon="5.12192">
        <ele>315.45</ele>
        <time>2021-02-15T12:52:11Z</time>
      </trkpt>
      <trkpt lat="43.93448" lon="5.12205">
        <ele>316.41</ele>
        <time>2021-02-15T12:52:20Z</time>
      </trkpt>
      <trkpt lat="43.93461" lon="5.12213">
        <ele>317.85</ele>
        <time>2021-02-15T12:52:34Z</time>
      </trkpt>
      <trkpt lat="43.93466" lon="5.12214">
        <ele>318.33</ele>
        <time>2021-02-15T12:52:39Z</time>
      </trkpt>
      <trkpt lat="43.9347" lon="5.12215">
        <ele>318.81</ele>
        <time>2021-02-15T12:52:44Z</time>
      </trkpt>
      <trkpt lat="43.93482" lon="5.12222">
        <ele>320.26</ele>
        <time>2021-02-15T12:52:59Z</time>
      </trkpt>
      <trkpt lat="43.9348" lon="5.12223">
        <ele>320.26</ele>
        <time>2021-02-15T12:53:11Z</time>
      </trkpt>
      <trkpt lat="43.93477" lon="5.12233">
        <ele>320.26</ele>
        <time>2021-02-15T12:53:26Z</time>
      </trkpt>
      <trkpt lat="43.93472" lon="5.12242">
        <ele>320.74</ele>
        <time>2021-02-15T12:53:38Z</time>
      </trkpt>
      <trkpt lat="43.9347" lon="5.1225">
        <ele>320.74</ele>
        <time>2021-02-15T12:53:56Z</time>
      </trkpt>
      <trkpt lat="43.93469" lon="5.12252">
        <ele>320.74</ele>
        <time>2021-02-15T12:54:19Z</time>
      </trkpt>
      <trkpt lat="43.93469" lon="5.1225">
        <ele>320.74</ele>
        <time>2021-02-15T12:55:06Z</time>
      </trkpt>
      <trkpt lat="43.9347" lon="5.12252">
        <ele>320.26</ele>
        <time>2021-02-15T12:55:42Z</time>
      </trkpt>
      <trkpt lat="43.93469" lon="5.12248">
        <ele>320.26</ele>
        <time>2021-02-15T12:56:11Z</time>
      </trkpt>
      <trkpt lat="43.93473" lon="5.12238">
        <ele>320.26</ele>
        <time>2021-02-15T12:56:20Z</time>
      </trkpt>
      <trkpt lat="43.93479" lon="5.12219">
        <ele>320.26</ele>
        <time>2021-02-15T12:56:36Z</time>
      </trkpt>
      <trkpt lat="43.93477" lon="5.12217">
        <ele>318.81</ele>
        <time>2021-02-15T12:56:39Z</time>
      </trkpt>
      <trkpt lat="43.93462" lon="5.12217">
        <ele>317.37</ele>
        <time>2021-02-15T12:56:56Z</time>
      </trkpt>
      <trkpt lat="43.93446" lon="5.12214">
        <ele>315.93</ele>
        <time>2021-02-15T12:57:13Z</time>
      </trkpt>
      <trkpt lat="43.93443" lon="5.12216">
        <ele>314.97</ele>
        <time>2021-02-15T12:57:26Z</time>
      </trkpt>
      <trkpt lat="43.93443" lon="5.12215">
        <ele>315.93</ele>
        <time>2021-02-15T12:57:48Z</time>
      </trkpt>
      <trkpt lat="43.93443" lon="5.12215">
        <ele>315.93</ele>
        <time>2021-02-15T12:58:05Z</time>
      </trkpt>
      <trkpt lat="43.93444" lon="5.12214">
        <ele>315.45</ele>
        <time>2021-02-15T12:58:26Z</time>
      </trkpt>
      <trkpt lat="43.93443" lon="5.12214">
        <ele>315.45</ele>
        <time>2021-02-15T12:59:00Z</time>
      </trkpt>
      <trkpt lat="43.93441" lon="5.12218">
        <ele>316.41</ele>
        <time>2021-02-15T12:59:13Z</time>
      </trkpt>
      <trkpt lat="43.93438" lon="5.12222">
        <ele>316.89</ele>
        <time>2021-02-15T12:59:19Z</time>
      </trkpt>
      <trkpt lat="43.93433" lon="5.12236">
        <ele>317.85</ele>
        <time>2021-02-15T12:59:35Z</time>
      </trkpt>
      <trkpt lat="43.9343" lon="5.12242">
        <ele>318.81</ele>
        <time>2021-02-15T12:59:43Z</time>
      </trkpt>
      <trkpt lat="43.93424" lon="5.12258">
        <ele>320.26</ele>
        <time>2021-02-15T12:59:53Z</time>
      </trkpt>
      <trkpt lat="43.93416" lon="5.12276">
        <ele>321.22</ele>
        <time>2021-02-15T13:00:09Z</time>
      </trkpt>
      <trkpt lat="43.93414" lon="5.12278">
        <ele>321.22</ele>
        <time>2021-02-15T13:00:11Z</time>
      </trkpt>
      <trkpt lat="43.93412" lon="5.12281">
        <ele>321.22</ele>
        <time>2021-02-15T13:00:14Z</time>
      </trkpt>
      <trkpt lat="43.93402" lon="5.12286">
        <ele>321.7</ele>
        <time>2021-02-15T13:00:27Z</time>
      </trkpt>
      <trkpt lat="43.93394" lon="5.12288">
        <ele>320.26</ele>
        <time>2021-02-15T13:00:35Z</time>
      </trkpt>
      <trkpt lat="43.93385" lon="5.12286">
        <ele>320.26</ele>
        <time>2021-02-15T13:00:44Z</time>
      </trkpt>
      <trkpt lat="43.93374" lon="5.12281">
        <ele>319.3</ele>
        <time>2021-02-15T13:00:54Z</time>
      </trkpt>
      <trkpt lat="43.93354" lon="5.12273">
        <ele>317.85</ele>
        <time>2021-02-15T13:01:13Z</time>
      </trkpt>
      <trkpt lat="43.9335" lon="5.12271">
        <ele>317.37</ele>
        <time>2021-02-15T13:01:17Z</time>
      </trkpt>
      <trkpt lat="43.93333" lon="5.12273">
        <ele>315.93</ele>
        <time>2021-02-15T13:01:33Z</time>
      </trkpt>
      <trkpt lat="43.93312" lon="5.12275">
        <ele>314.49</ele>
        <time>2021-02-15T13:01:52Z</time>
      </trkpt>
      <trkpt lat="43.93309" lon="5.12272">
        <ele>314.01</ele>
        <time>2021-02-15T13:01:55Z</time>
      </trkpt>
      <trkpt lat="43.9329" lon="5.12268">
        <ele>311.6</ele>
        <time>2021-02-15T13:02:12Z</time>
      </trkpt>
      <trkpt lat="43.9327" lon="5.12272">
        <ele>310.16</ele>
        <time>2021-02-15T13:02:30Z</time>
      </trkpt>
      <trkpt lat="43.93249" lon="5.12271">
        <ele>307.76</ele>
        <time>2021-02-15T13:02:49Z</time>
      </trkpt>
      <trkpt lat="43.93227" lon="5.12272">
        <ele>306.8</ele>
        <time>2021-02-15T13:03:08Z</time>
      </trkpt>
      <trkpt lat="43.93208" lon="5.12271">
        <ele>305.84</ele>
        <time>2021-02-15T13:03:27Z</time>
      </trkpt>
      <trkpt lat="43.93191" lon="5.12269">
        <ele>302.95</ele>
        <time>2021-02-15T13:03:44Z</time>
      </trkpt>
      <trkpt lat="43.93174" lon="5.12268">
        <ele>300.55</ele>
        <time>2021-02-15T13:04:00Z</time>
      </trkpt>
      <trkpt lat="43.93163" lon="5.12271">
        <ele>299.59</ele>
        <time>2021-02-15T13:04:11Z</time>
      </trkpt>
      <trkpt lat="43.93158" lon="5.1227">
        <ele>298.63</ele>
        <time>2021-02-15T13:04:15Z</time>
      </trkpt>
      <trkpt lat="43.93139" lon="5.12271">
        <ele>298.15</ele>
        <time>2021-02-15T13:04:33Z</time>
      </trkpt>
      <trkpt lat="43.93126" lon="5.12273">
        <ele>296.22</ele>
        <time>2021-02-15T13:04:47Z</time>
      </trkpt>
      <trkpt lat="43.93119" lon="5.12275">
        <ele>295.74</ele>
        <time>2021-02-15T13:04:54Z</time>
      </trkpt>
      <trkpt lat="43.93105" lon="5.12274">
        <ele>294.3</ele>
        <time>2021-02-15T13:05:10Z</time>
      </trkpt>
      <trkpt lat="43.93098" lon="5.1227">
        <ele>293.82</ele>
        <time>2021-02-15T13:05:17Z</time>
      </trkpt>
      <trkpt lat="43.93088" lon="5.12261">
        <ele>291.9</ele>
        <time>2021-02-15T13:05:31Z</time>
      </trkpt>
      <trkpt lat="43.93081" lon="5.12259">
        <ele>290.94</ele>
        <time>2021-02-15T13:05:39Z</time>
      </trkpt>
      <trkpt lat="43.93065" lon="5.1226">
        <ele>289.49</ele>
        <time>2021-02-15T13:05:58Z</time>
      </trkpt>
      <trkpt lat="43.93052" lon="5.12258">
        <ele>288.05</ele>
        <time>2021-02-15T13:06:14Z</time>
      </trkpt>
      <trkpt lat="43.93039" lon="5.12252">
        <ele>285.65</ele>
        <time>2021-02-15T13:06:36Z</time>
      </trkpt>
      <trkpt lat="43.93028" lon="5.12248">
        <ele>283.73</ele>
        <time>2021-02-15T13:06:51Z</time>
      </trkpt>
      <trkpt lat="43.93021" lon="5.12243">
        <ele>282.28</ele>
        <time>2021-02-15T13:06:59Z</time>
      </trkpt>
      <trkpt lat="43.93012" lon="5.12238">
        <ele>281.32</ele>
        <time>2021-02-15T13:07:13Z</time>
      </trkpt>
      <trkpt lat="43.92997" lon="5.12229">
        <ele>278.92</ele>
        <time>2021-02-15T13:07:30Z</time>
      </trkpt>
      <trkpt lat="43.92985" lon="5.1222">
        <ele>277.48</ele>
        <time>2021-02-15T13:07:45Z</time>
      </trkpt>
      <trkpt lat="43.92974" lon="5.12213">
        <ele>276.04</ele>
        <time>2021-02-15T13:07:59Z</time>
      </trkpt>
      <trkpt lat="43.92959" lon="5.12206">
        <ele>274.11</ele>
        <time>2021-02-15T13:08:17Z</time>
      </trkpt>
      <trkpt lat="43.92944" lon="5.12197">
        <ele>271.71</ele>
        <time>2021-02-15T13:08:34Z</time>
      </trkpt>
      <trkpt lat="43.9293" lon="5.12191">
        <ele>269.31</ele>
        <time>2021-02-15T13:08:50Z</time>
      </trkpt>
      <trkpt lat="43.92917" lon="5.12184">
        <ele>266.9</ele>
        <time>2021-02-15T13:09:07Z</time>
      </trkpt>
      <trkpt lat="43.92907" lon="5.12182">
        <ele>265.46</ele>
        <time>2021-02-15T13:09:23Z</time>
      </trkpt>
      <trkpt lat="43.92906" lon="5.12183">
        <ele>265.46</ele>
        <time>2021-02-15T13:09:24Z</time>
      </trkpt>
      <trkpt lat="43.92892" lon="5.12184">
        <ele>263.54</ele>
        <time>2021-02-15T13:09:39Z</time>
      </trkpt>
      <trkpt lat="43.9288" lon="5.1218">
        <ele>262.1</ele>
        <time>2021-02-15T13:09:55Z</time>
      </trkpt>
      <trkpt lat="43.92867" lon="5.12172">
        <ele>259.69</ele>
        <time>2021-02-15T13:10:11Z</time>
      </trkpt>
      <trkpt lat="43.92855" lon="5.12166">
        <ele>257.29</ele>
        <time>2021-02-15T13:10:24Z</time>
      </trkpt>
      <trkpt lat="43.92839" lon="5.12161">
        <ele>255.85</ele>
        <time>2021-02-15T13:10:39Z</time>
      </trkpt>
      <trkpt lat="43.92834" lon="5.1216">
        <ele>255.37</ele>
        <time>2021-02-15T13:10:43Z</time>
      </trkpt>
      <trkpt lat="43.92822" lon="5.12149">
        <ele>252.96</ele>
        <time>2021-02-15T13:10:58Z</time>
      </trkpt>
      <trkpt lat="43.92811" lon="5.12142">
        <ele>250.08</ele>
        <time>2021-02-15T13:11:13Z</time>
      </trkpt>
      <trkpt lat="43.92796" lon="5.12136">
        <ele>248.64</ele>
        <time>2021-02-15T13:11:29Z</time>
      </trkpt>
      <trkpt lat="43.92787" lon="5.12136">
        <ele>247.68</ele>
        <time>2021-02-15T13:11:38Z</time>
      </trkpt>
      <trkpt lat="43.92777" lon="5.12133">
        <ele>245.75</ele>
        <time>2021-02-15T13:11:48Z</time>
      </trkpt>
      <trkpt lat="43.92759" lon="5.12123">
        <ele>242.87</ele>
        <time>2021-02-15T13:12:06Z</time>
      </trkpt>
      <trkpt lat="43.92744" lon="5.12115">
        <ele>240.95</ele>
        <time>2021-02-15T13:12:22Z</time>
      </trkpt>
      <trkpt lat="43.92731" lon="5.12126">
        <ele>240.47</ele>
        <time>2021-02-15T13:12:39Z</time>
      </trkpt>
      <trkpt lat="43.92729" lon="5.12126">
        <ele>239.99</ele>
        <time>2021-02-15T13:12:43Z</time>
      </trkpt>
      <trkpt lat="43.92725" lon="5.12124">
        <ele>239.51</ele>
        <time>2021-02-15T13:12:57Z</time>
      </trkpt>
      <trkpt lat="43.92723" lon="5.12121">
        <ele>239.02</ele>
        <time>2021-02-15T13:13:26Z</time>
      </trkpt>
      <trkpt lat="43.92724" lon="5.12122">
        <ele>239.02</ele>
        <time>2021-02-15T13:14:06Z</time>
      </trkpt>
      <trkpt lat="43.92723" lon="5.12119">
        <ele>239.02</ele>
        <time>2021-02-15T13:14:50Z</time>
      </trkpt>
      <trkpt lat="43.92725" lon="5.12118">
        <ele>242.39</ele>
        <time>2021-02-15T13:15:09Z</time>
      </trkpt>
      <trkpt lat="43.92726" lon="5.12119">
        <ele>239.99</ele>
        <time>2021-02-15T13:15:24Z</time>
      </trkpt>
      <trkpt lat="43.92725" lon="5.12122">
        <ele>239.99</ele>
        <time>2021-02-15T13:16:05Z</time>
      </trkpt>
      <trkpt lat="43.92727" lon="5.1212">
        <ele>239.99</ele>
        <time>2021-02-15T13:16:42Z</time>
      </trkpt>
      <trkpt lat="43.92726" lon="5.12123">
        <ele>239.99</ele>
        <time>2021-02-15T13:17:18Z</time>
      </trkpt>
      <trkpt lat="43.92725" lon="5.12119">
        <ele>239.99</ele>
        <time>2021-02-15T13:17:43Z</time>
      </trkpt>
      <trkpt lat="43.92722" lon="5.12117">
        <ele>240.95</ele>
        <time>2021-02-15T13:17:48Z</time>
      </trkpt>
      <trkpt lat="43.92721" lon="5.12119">
        <ele>239.51</ele>
        <time>2021-02-15T13:18:11Z</time>
      </trkpt>
      <trkpt lat="43.92717" lon="5.12115">
        <ele>239.51</ele>
        <time>2021-02-15T13:18:34Z</time>
      </trkpt>
      <trkpt lat="43.92702" lon="5.12099">
        <ele>237.58</ele>
        <time>2021-02-15T13:18:50Z</time>
      </trkpt>
      <trkpt lat="43.92689" lon="5.12088">
        <ele>235.66</ele>
        <time>2021-02-15T13:19:05Z</time>
      </trkpt>
      <trkpt lat="43.92677" lon="5.12073">
        <ele>234.22</ele>
        <time>2021-02-15T13:19:19Z</time>
      </trkpt>
      <trkpt lat="43.92663" lon="5.12057">
        <ele>232.78</ele>
        <time>2021-02-15T13:19:36Z</time>
      </trkpt>
      <trkpt lat="43.92652" lon="5.12046">
        <ele>231.33</ele>
        <time>2021-02-15T13:19:49Z</time>
      </trkpt>
      <trkpt lat="43.92638" lon="5.12032">
        <ele>229.89</ele>
        <time>2021-02-15T13:20:07Z</time>
      </trkpt>
      <trkpt lat="43.92624" lon="5.12014">
        <ele>227.49</ele>
        <time>2021-02-15T13:20:25Z</time>
      </trkpt>
      <trkpt lat="43.92612" lon="5.12001">
        <ele>226.05</ele>
        <time>2021-02-15T13:20:40Z</time>
      </trkpt>
      <trkpt lat="43.92603" lon="5.11985">
        <ele>224.12</ele>
        <time>2021-02-15T13:20:55Z</time>
      </trkpt>
      <trkpt lat="43.92596" lon="5.11967">
        <ele>222.2</ele>
        <time>2021-02-15T13:21:12Z</time>
      </trkpt>
      <trkpt lat="43.92587" lon="5.1195">
        <ele>220.28</ele>
        <time>2021-02-15T13:21:26Z</time>
      </trkpt>
      <trkpt lat="43.92579" lon="5.11935">
        <ele>217.88</ele>
        <time>2021-02-15T13:21:41Z</time>
      </trkpt>
      <trkpt lat="43.92579" lon="5.11934">
        <ele>217.88</ele>
        <time>2021-02-15T13:21:42Z</time>
      </trkpt>
      <trkpt lat="43.92573" lon="5.11918">
        <ele>215.95</ele>
        <time>2021-02-15T13:21:57Z</time>
      </trkpt>
      <trkpt lat="43.9256" lon="5.11907">
        <ele>213.55</ele>
        <time>2021-02-15T13:22:14Z</time>
      </trkpt>
      <trkpt lat="43.92553" lon="5.1189">
        <ele>211.63</ele>
        <time>2021-02-15T13:22:30Z</time>
      </trkpt>
      <trkpt lat="43.92543" lon="5.11876">
        <ele>209.7</ele>
        <time>2021-02-15T13:22:46Z</time>
      </trkpt>
      <trkpt lat="43.92537" lon="5.11858">
        <ele>207.3</ele>
        <time>2021-02-15T13:23:01Z</time>
      </trkpt>
      <trkpt lat="43.92532" lon="5.11844">
        <ele>205.38</ele>
        <time>2021-02-15T13:23:16Z</time>
      </trkpt>
      <trkpt lat="43.92528" lon="5.11841">
        <ele>204.9</ele>
        <time>2021-02-15T13:23:21Z</time>
      </trkpt>
      <trkpt lat="43.92508" lon="5.1184">
        <ele>203.94</ele>
        <time>2021-02-15T13:23:39Z</time>
      </trkpt>
      <trkpt lat="43.92483" lon="5.11843">
        <ele>203.46</ele>
        <time>2021-02-15T13:24:00Z</time>
      </trkpt>
      <trkpt lat="43.92463" lon="5.11834">
        <ele>202.49</ele>
        <time>2021-02-15T13:24:19Z</time>
      </trkpt>
      <trkpt lat="43.92448" lon="5.11823">
        <ele>201.53</ele>
        <time>2021-02-15T13:24:33Z</time>
      </trkpt>
      <trkpt lat="43.92442" lon="5.11822">
        <ele>201.05</ele>
        <time>2021-02-15T13:24:38Z</time>
      </trkpt>
      <trkpt lat="43.92421" lon="5.11823">
        <ele>199.13</ele>
        <time>2021-02-15T13:24:57Z</time>
      </trkpt>
      <trkpt lat="43.92403" lon="5.11822">
        <ele>198.17</ele>
        <time>2021-02-15T13:25:16Z</time>
      </trkpt>
      <trkpt lat="43.92399" lon="5.11822">
        <ele>197.69</ele>
        <time>2021-02-15T13:25:19Z</time>
      </trkpt>
      <trkpt lat="43.9238" lon="5.11817">
        <ele>196.25</ele>
        <time>2021-02-15T13:25:36Z</time>
      </trkpt>
      <trkpt lat="43.9236" lon="5.11811">
        <ele>194.8</ele>
        <time>2021-02-15T13:25:53Z</time>
      </trkpt>
      <trkpt lat="43.92345" lon="5.11806">
        <ele>193.84</ele>
        <time>2021-02-15T13:26:09Z</time>
      </trkpt>
      <trkpt lat="43.9233" lon="5.118">
        <ele>192.4</ele>
        <time>2021-02-15T13:26:25Z</time>
      </trkpt>
      <trkpt lat="43.92316" lon="5.11794">
        <ele>190.48</ele>
        <time>2021-02-15T13:26:41Z</time>
      </trkpt>
      <trkpt lat="43.923" lon="5.1179">
        <ele>188.56</ele>
        <time>2021-02-15T13:26:59Z</time>
      </trkpt>
      <trkpt lat="43.92284" lon="5.11785">
        <ele>186.63</ele>
        <time>2021-02-15T13:27:15Z</time>
      </trkpt>
      <trkpt lat="43.92271" lon="5.11772">
        <ele>184.71</ele>
        <time>2021-02-15T13:27:32Z</time>
      </trkpt>
      <trkpt lat="43.92254" lon="5.11757">
        <ele>181.35</ele>
        <time>2021-02-15T13:27:51Z</time>
      </trkpt>
      <trkpt lat="43.92239" lon="5.11747">
        <ele>179.9</ele>
        <time>2021-02-15T13:28:05Z</time>
      </trkpt>
      <trkpt lat="43.92237" lon="5.11745">
        <ele>179.9</ele>
        <time>2021-02-15T13:28:07Z</time>
      </trkpt>
      <trkpt lat="43.92225" lon="5.11737">
        <ele>178.46</ele>
        <time>2021-02-15T13:28:20Z</time>
      </trkpt>
      <trkpt lat="43.92213" lon="5.11729">
        <ele>177.02</ele>
        <time>2021-02-15T13:28:34Z</time>
      </trkpt>
      <trkpt lat="43.92196" lon="5.11727">
        <ele>175.1</ele>
        <time>2021-02-15T13:28:53Z</time>
      </trkpt>
      <trkpt lat="43.92178" lon="5.11722">
        <ele>174.14</ele>
        <time>2021-02-15T13:29:09Z</time>
      </trkpt>
      <trkpt lat="43.92169" lon="5.1172">
        <ele>173.17</ele>
        <time>2021-02-15T13:29:17Z</time>
      </trkpt>
      <trkpt lat="43.92158" lon="5.11721">
        <ele>171.73</ele>
        <time>2021-02-15T13:29:28Z</time>
      </trkpt>
      <trkpt lat="43.92149" lon="5.11731">
        <ele>170.29</ele>
        <time>2021-02-15T13:29:44Z</time>
      </trkpt>
      <trkpt lat="43.92148" lon="5.11734">
        <ele>170.29</ele>
        <time>2021-02-15T13:29:58Z</time>
      </trkpt>
      <trkpt lat="43.92148" lon="5.11736">
        <ele>170.29</ele>
        <time>2021-02-15T13:30:21Z</time>
      </trkpt>
      <trkpt lat="43.92149" lon="5.11739">
        <ele>170.29</ele>
        <time>2021-02-15T13:30:47Z</time>
      </trkpt>
      <trkpt lat="43.92147" lon="5.11739">
        <ele>170.29</ele>
        <time>2021-02-15T13:31:15Z</time>
      </trkpt>
      <trkpt lat="43.92145" lon="5.11741">
        <ele>169.81</ele>
        <time>2021-02-15T13:31:38Z</time>
      </trkpt>
      <trkpt lat="43.92147" lon="5.11739">
        <ele>171.25</ele>
        <time>2021-02-15T13:32:08Z</time>
      </trkpt>
      <trkpt lat="43.92146" lon="5.11739">
        <ele>171.25</ele>
        <time>2021-02-15T13:32:28Z</time>
      </trkpt>
      <trkpt lat="43.92146" lon="5.11739">
        <ele>171.25</ele>
        <time>2021-02-15T13:32:54Z</time>
      </trkpt>
      <trkpt lat="43.92146" lon="5.11737">
        <ele>171.25</ele>
        <time>2021-02-15T13:33:13Z</time>
      </trkpt>
      <trkpt lat="43.92142" lon="5.11731">
        <ele>171.25</ele>
        <time>2021-02-15T13:33:35Z</time>
      </trkpt>
      <trkpt lat="43.92141" lon="5.1173">
        <ele>171.25</ele>
        <time>2021-02-15T13:34:02Z</time>
      </trkpt>
      <trkpt lat="43.92141" lon="5.1173">
        <ele>170.29</ele>
        <time>2021-02-15T13:34:30Z</time>
      </trkpt>
      <trkpt lat="43.92143" lon="5.11731">
        <ele>170.29</ele>
        <time>2021-02-15T13:34:53Z</time>
      </trkpt>
      <trkpt lat="43.92144" lon="5.11733">
        <ele>171.25</ele>
        <time>2021-02-15T13:35:11Z</time>
      </trkpt>
      <trkpt lat="43.92147" lon="5.11736">
        <ele>171.25</ele>
        <time>2021-02-15T13:35:29Z</time>
      </trkpt>
      <trkpt lat="43.92146" lon="5.11737">
        <ele>172.21</ele>
        <time>2021-02-15T13:35:48Z</time>
      </trkpt>
      <trkpt lat="43.92148" lon="5.11737">
        <ele>172.21</ele>
        <time>2021-02-15T13:36:02Z</time>
      </trkpt>
      <trkpt lat="43.92149" lon="5.1174">
        <ele>172.21</ele>
        <time>2021-02-15T13:36:29Z</time>
      </trkpt>
      <trkpt lat="43.92152" lon="5.11753">
        <ele>170.77</ele>
        <time>2021-02-15T13:36:44Z</time>
      </trkpt>
      <trkpt lat="43.92155" lon="5.11772">
        <ele>168.85</ele>
        <time>2021-02-15T13:37:00Z</time>
      </trkpt>
      <trkpt lat="43.92159" lon="5.11781">
        <ele>168.37</ele>
        <time>2021-02-15T13:37:08Z</time>
      </trkpt>
      <trkpt lat="43.92161" lon="5.11785">
        <ele>167.89</ele>
        <time>2021-02-15T13:37:12Z</time>
      </trkpt>
      <trkpt lat="43.92167" lon="5.11791">
        <ele>166.45</ele>
        <time>2021-02-15T13:37:20Z</time>
      </trkpt>
      <trkpt lat="43.92174" lon="5.11798">
        <ele>165.48</ele>
        <time>2021-02-15T13:37:32Z</time>
      </trkpt>
      <trkpt lat="43.92184" lon="5.1181">
        <ele>162.6</ele>
        <time>2021-02-15T13:37:47Z</time>
      </trkpt>
      <trkpt lat="43.9219" lon="5.11826">
        <ele>160.2</ele>
        <time>2021-02-15T13:38:02Z</time>
      </trkpt>
      <trkpt lat="43.92192" lon="5.11829">
        <ele>159.24</ele>
        <time>2021-02-15T13:38:06Z</time>
      </trkpt>
      <trkpt lat="43.92194" lon="5.11838">
        <ele>158.27</ele>
        <time>2021-02-15T13:38:20Z</time>
      </trkpt>
      <trkpt lat="43.92196" lon="5.1185">
        <ele>156.35</ele>
        <time>2021-02-15T13:38:31Z</time>
      </trkpt>
      <trkpt lat="43.92201" lon="5.11869">
        <ele>154.43</ele>
        <time>2021-02-15T13:38:47Z</time>
      </trkpt>
      <trkpt lat="43.92204" lon="5.11888">
        <ele>152.99</ele>
        <time>2021-02-15T13:39:02Z</time>
      </trkpt>
      <trkpt lat="43.92206" lon="5.11908">
        <ele>151.54</ele>
        <time>2021-02-15T13:39:17Z</time>
      </trkpt>
      <trkpt lat="43.92205" lon="5.11913">
        <ele>151.06</ele>
        <time>2021-02-15T13:39:21Z</time>
      </trkpt>
      <trkpt lat="43.92202" lon="5.11933">
        <ele>148.18</ele>
        <time>2021-02-15T13:39:37Z</time>
      </trkpt>
      <trkpt lat="43.92192" lon="5.11948">
        <ele>146.26</ele>
        <time>2021-02-15T13:39:52Z</time>
      </trkpt>
      <trkpt lat="43.92187" lon="5.11954">
        <ele>145.78</ele>
        <time>2021-02-15T13:39:59Z</time>
      </trkpt>
      <trkpt lat="43.92185" lon="5.1196">
        <ele>145.3</ele>
        <time>2021-02-15T13:40:04Z</time>
      </trkpt>
      <trkpt lat="43.92184" lon="5.11964">
        <ele>144.34</ele>
        <time>2021-02-15T13:40:07Z</time>
      </trkpt>
      <trkpt lat="43.92178" lon="5.11976">
        <ele>143.37</ele>
        <time>2021-02-15T13:40:17Z</time>
      </trkpt>
      <trkpt lat="43.92167" lon="5.11991">
        <ele>141.93</ele>
        <time>2021-02-15T13:40:32Z</time>
      </trkpt>
      <trkpt lat="43.92163" lon="5.12">
        <ele>140.49</ele>
        <time>2021-02-15T13:40:40Z</time>
      </trkpt>
      <trkpt lat="43.92156" lon="5.12019">
        <ele>138.09</ele>
        <time>2021-02-15T13:40:55Z</time>
      </trkpt>
      <trkpt lat="43.92158" lon="5.12043">
        <ele>137.61</ele>
        <time>2021-02-15T13:41:10Z</time>
      </trkpt>
      <trkpt lat="43.92162" lon="5.12066">
        <ele>137.13</ele>
        <time>2021-02-15T13:41:26Z</time>
      </trkpt>
      <trkpt lat="43.92169" lon="5.12084">
        <ele>136.64</ele>
        <time>2021-02-15T13:41:40Z</time>
      </trkpt>
      <trkpt lat="43.92171" lon="5.12092">
        <ele>136.16</ele>
        <time>2021-02-15T13:41:46Z</time>
      </trkpt>
      <trkpt lat="43.92178" lon="5.12112">
        <ele>134.24</ele>
        <time>2021-02-15T13:42:02Z</time>
      </trkpt>
      <trkpt lat="43.92184" lon="5.12124">
        <ele>131.84</ele>
        <time>2021-02-15T13:42:17Z</time>
      </trkpt>
      <trkpt lat="43.92182" lon="5.12126">
        <ele>131.84</ele>
        <time>2021-02-15T13:42:36Z</time>
      </trkpt>
      <trkpt lat="43.92183" lon="5.1213">
        <ele>131.84</ele>
        <time>2021-02-15T13:42:58Z</time>
      </trkpt>
      <trkpt lat="43.92191" lon="5.12143">
        <ele>129.92</ele>
        <time>2021-02-15T13:43:13Z</time>
      </trkpt>
      <trkpt lat="43.92203" lon="5.12155">
        <ele>127.99</ele>
        <time>2021-02-15T13:43:30Z</time>
      </trkpt>
      <trkpt lat="43.92214" lon="5.12173">
        <ele>125.59</ele>
        <time>2021-02-15T13:43:47Z</time>
      </trkpt>
      <trkpt lat="43.92216" lon="5.12178">
        <ele>125.59</ele>
        <time>2021-02-15T13:43:51Z</time>
      </trkpt>
      <trkpt lat="43.92222" lon="5.12194">
        <ele>124.63</ele>
        <time>2021-02-15T13:44:06Z</time>
      </trkpt>
      <trkpt lat="43.92225" lon="5.12209">
        <ele>123.67</ele>
        <time>2021-02-15T13:44:20Z</time>
      </trkpt>
      <trkpt lat="43.92219" lon="5.12226">
        <ele>122.22</ele>
        <time>2021-02-15T13:44:35Z</time>
      </trkpt>
      <trkpt lat="43.92217" lon="5.12231">
        <ele>121.74</ele>
        <time>2021-02-15T13:44:40Z</time>
      </trkpt>
      <trkpt lat="43.92211" lon="5.1225">
        <ele>120.78</ele>
        <time>2021-02-15T13:44:55Z</time>
      </trkpt>
      <trkpt lat="43.92209" lon="5.12266">
        <ele>119.34</ele>
        <time>2021-02-15T13:45:09Z</time>
      </trkpt>
      <trkpt lat="43.92208" lon="5.12289">
        <ele>116.94</ele>
        <time>2021-02-15T13:45:26Z</time>
      </trkpt>
      <trkpt lat="43.92207" lon="5.12308">
        <ele>114.05</ele>
        <time>2021-02-15T13:45:41Z</time>
      </trkpt>
      <trkpt lat="43.92204" lon="5.12328">
        <ele>110.69</ele>
        <time>2021-02-15T13:45:56Z</time>
      </trkpt>
      <trkpt lat="43.92205" lon="5.12352">
        <ele>109.25</ele>
        <time>2021-02-15T13:46:11Z</time>
      </trkpt>
      <trkpt lat="43.92205" lon="5.12379">
        <ele>106.36</ele>
        <time>2021-02-15T13:46:29Z</time>
      </trkpt>
      <trkpt lat="43.92203" lon="5.1241">
        <ele>104.44</ele>
        <time>2021-02-15T13:46:49Z</time>
      </trkpt>
      <trkpt lat="43.92203" lon="5.12435">
        <ele>102.52</ele>
        <time>2021-02-15T13:47:07Z</time>
      </trkpt>
      <trkpt lat="43.92203" lon="5.12462">
        <ele>100.6</ele>
        <time>2021-02-15T13:47:25Z</time>
      </trkpt>
      <trkpt lat="43.92202" lon="5.12468">
        <ele>99.63</ele>
        <time>2021-02-15T13:47:41Z</time>
      </trkpt>
      <trkpt lat="43.92203" lon="5.1247">
        <ele>99.15</ele>
        <time>2021-02-15T13:47:56Z</time>
      </trkpt>
      <trkpt lat="43.92201" lon="5.12486">
        <ele>98.19</ele>
        <time>2021-02-15T13:48:12Z</time>
      </trkpt>
      <trkpt lat="43.922" lon="5.12491">
        <ele>97.23</ele>
        <time>2021-02-15T13:48:17Z</time>
      </trkpt>
      <trkpt lat="43.92195" lon="5.12502">
        <ele>94.83</ele>
        <time>2021-02-15T13:48:28Z</time>
      </trkpt>
      <trkpt lat="43.92194" lon="5.12506">
        <ele>94.83</ele>
        <time>2021-02-15T13:48:31Z</time>
      </trkpt>
      <trkpt lat="43.92191" lon="5.12514">
        <ele>94.35</ele>
        <time>2021-02-15T13:48:37Z</time>
      </trkpt>
      <trkpt lat="43.92187" lon="5.12538">
        <ele>92.9</ele>
        <time>2021-02-15T13:48:53Z</time>
      </trkpt>
      <trkpt lat="43.92182" lon="5.12559">
        <ele>90.5</ele>
        <time>2021-02-15T13:49:09Z</time>
      </trkpt>
      <trkpt lat="43.92176" lon="5.1258">
        <ele>88.1</ele>
        <time>2021-02-15T13:49:24Z</time>
      </trkpt>
      <trkpt lat="43.92172" lon="5.12598">
        <ele>87.62</ele>
        <time>2021-02-15T13:49:39Z</time>
      </trkpt>
      <trkpt lat="43.92168" lon="5.12617">
        <ele>87.14</ele>
        <time>2021-02-15T13:49:54Z</time>
      </trkpt>
      <trkpt lat="43.92171" lon="5.12637">
        <ele>86.66</ele>
        <time>2021-02-15T13:50:09Z</time>
      </trkpt>
      <trkpt lat="43.92175" lon="5.1265">
        <ele>86.18</ele>
        <time>2021-02-15T13:50:20Z</time>
      </trkpt>
      <trkpt lat="43.92179" lon="5.12673">
        <ele>84.73</ele>
        <time>2021-02-15T13:50:37Z</time>
      </trkpt>
      <trkpt lat="43.92183" lon="5.12696">
        <ele>84.25</ele>
        <time>2021-02-15T13:50:53Z</time>
      </trkpt>
      <trkpt lat="43.92185" lon="5.12723">
        <ele>82.81</ele>
        <time>2021-02-15T13:51:12Z</time>
      </trkpt>
      <trkpt lat="43.9219" lon="5.12738">
        <ele>82.81</ele>
        <time>2021-02-15T13:51:28Z</time>
      </trkpt>
      <trkpt lat="43.92192" lon="5.12744">
        <ele>82.81</ele>
        <time>2021-02-15T13:51:43Z</time>
      </trkpt>
      <trkpt lat="43.92199" lon="5.12745">
        <ele>82.81</ele>
        <time>2021-02-15T13:52:10Z</time>
      </trkpt>
      <trkpt lat="43.92199" lon="5.12746">
        <ele>81.37</ele>
        <time>2021-02-15T13:52:19Z</time>
      </trkpt>
      <trkpt lat="43.92195" lon="5.12752">
        <ele>82.33</ele>
        <time>2021-02-15T13:52:35Z</time>
      </trkpt>
      <trkpt lat="43.92194" lon="5.12771">
        <ele>82.33</ele>
        <time>2021-02-15T13:52:50Z</time>
      </trkpt>
      <trkpt lat="43.92194" lon="5.12771">
        <ele>83.29</ele>
        <time>2021-02-15T13:53:13Z</time>
      </trkpt>
      <trkpt lat="43.92191" lon="5.12773">
        <ele>83.29</ele>
        <time>2021-02-15T13:53:41Z</time>
      </trkpt>
      <trkpt lat="43.92192" lon="5.12772">
        <ele>83.29</ele>
        <time>2021-02-15T13:54:03Z</time>
      </trkpt>
      <trkpt lat="43.92194" lon="5.12771">
        <ele>83.77</ele>
        <time>2021-02-15T13:54:20Z</time>
      </trkpt>
      <trkpt lat="43.92194" lon="5.12773">
        <ele>83.77</ele>
        <time>2021-02-15T13:54:50Z</time>
      </trkpt>
      <trkpt lat="43.9219" lon="5.12787">
        <ele>83.29</ele>
        <time>2021-02-15T13:55:01Z</time>
      </trkpt>
      <trkpt lat="43.92189" lon="5.1279">
        <ele>83.29</ele>
        <time>2021-02-15T13:55:03Z</time>
      </trkpt>
      <trkpt lat="43.92187" lon="5.128">
        <ele>84.25</ele>
        <time>2021-02-15T13:55:18Z</time>
      </trkpt>
      <trkpt lat="43.92177" lon="5.12793">
        <ele>84.25</ele>
        <time>2021-02-15T13:55:32Z</time>
      </trkpt>
      <trkpt lat="43.92165" lon="5.12788">
        <ele>84.25</ele>
        <time>2021-02-15T13:55:45Z</time>
      </trkpt>
      <trkpt lat="43.92152" lon="5.12786">
        <ele>84.25</ele>
        <time>2021-02-15T13:56:01Z</time>
      </trkpt>
      <trkpt lat="43.92147" lon="5.12791">
        <ele>82.81</ele>
        <time>2021-02-15T13:56:09Z</time>
      </trkpt>
      <trkpt lat="43.92145" lon="5.12791">
        <ele>82.33</ele>
        <time>2021-02-15T13:56:11Z</time>
      </trkpt>
      <trkpt lat="43.92144" lon="5.12798">
        <ele>80.89</ele>
        <time>2021-02-15T13:56:23Z</time>
      </trkpt>
      <trkpt lat="43.92143" lon="5.12798">
        <ele>80.89</ele>
        <time>2021-02-15T13:56:24Z</time>
      </trkpt>
      <trkpt lat="43.92131" lon="5.128">
        <ele>80.89</ele>
        <time>2021-02-15T13:56:41Z</time>
      </trkpt>
      <trkpt lat="43.92128" lon="5.12822">
        <ele>82.33</ele>
        <time>2021-02-15T13:56:58Z</time>
      </trkpt>
      <trkpt lat="43.92132" lon="5.12829">
        <ele>84.25</ele>
        <time>2021-02-15T13:57:07Z</time>
      </trkpt>
      <trkpt lat="43.92109" lon="5.12829">
        <ele>83.77</ele>
        <time>2021-02-15T13:57:26Z</time>
      </trkpt>
      <trkpt lat="43.9209" lon="5.12821">
        <ele>84.25</ele>
        <time>2021-02-15T13:57:43Z</time>
      </trkpt>
      <trkpt lat="43.92086" lon="5.12821">
        <ele>84.25</ele>
        <time>2021-02-15T13:57:46Z</time>
      </trkpt>
      <trkpt lat="43.92071" lon="5.12816">
        <ele>84.25</ele>
        <time>2021-02-15T13:57:59Z</time>
      </trkpt>
      <trkpt lat="43.92068" lon="5.12815">
        <ele>84.25</ele>
        <time>2021-02-15T13:58:03Z</time>
      </trkpt>
      <trkpt lat="43.92065" lon="5.12813">
        <ele>84.25</ele>
        <time>2021-02-15T13:58:07Z</time>
      </trkpt>
      <trkpt lat="43.9205" lon="5.12809">
        <ele>84.25</ele>
        <time>2021-02-15T13:58:19Z</time>
      </trkpt>
      <trkpt lat="43.92047" lon="5.12809">
        <ele>84.25</ele>
        <time>2021-02-15T13:58:22Z</time>
      </trkpt>
      <trkpt lat="43.9204" lon="5.12807">
        <ele>84.25</ele>
        <time>2021-02-15T13:58:29Z</time>
      </trkpt>
      <trkpt lat="43.92026" lon="5.12801">
        <ele>84.25</ele>
        <time>2021-02-15T13:58:43Z</time>
      </trkpt>
      <trkpt lat="43.92006" lon="5.12792">
        <ele>83.77</ele>
        <time>2021-02-15T13:59:02Z</time>
      </trkpt>
      <trkpt lat="43.91996" lon="5.1279">
        <ele>83.77</ele>
        <time>2021-02-15T13:59:21Z</time>
      </trkpt>
      <trkpt lat="43.91988" lon="5.1278">
        <ele>83.77</ele>
        <time>2021-02-15T13:59:33Z</time>
      </trkpt>
      <trkpt lat="43.91992" lon="5.12778">
        <ele>82.33</ele>
        <time>2021-02-15T13:59:41Z</time>
      </trkpt>
      <trkpt lat="43.91989" lon="5.12761">
        <ele>80.89</ele>
        <time>2021-02-15T13:59:56Z</time>
      </trkpt>
    </trkseg>
  </trk>
</gpx>